Data for 08/30/2010

Time Sea-Level Adjusted Pressure Absolute Pressure Temperature Relative Humidity Dew Point Precipitation   
(mb) (inHg) (mb) (inHg) (C) (F) (%) (C) (F) (mm) (in)
00:01 1016 30 845 24.95 6.1 43 98 5.8 42.5 6.498 0.256
00:02 1016 30 845 24.95 6.2 43.1 98 5.9 42.6 6.549 0.258
00:03 1016 30 845 24.95 6.2 43.2 98 5.9 42.6 6.543 0.258
00:04 1016 30 845 24.95 6.3 43.3 98 6 42.7 6.566 0.259
00:05 1016 30 845 24.95 6.3 43.3 98 6 42.8 6.605 0.26
00:06 1016 30 845 24.95 6.3 43.4 98 6 42.8 6.639 0.261
00:07 1016 30 845 24.95 6.3 43.4 98 6 42.9 6.622 0.261
00:08 1016 30 845 24.95 6.3 43.4 98 6 42.9 6.662 0.262
00:09 1016 30 845 24.95 6.4 43.5 98 6.1 43 6.668 0.263
00:10 1016 30 845 24.95 6.4 43.5 98 6.1 43 6.736 0.265
00:11 1016 30 845 24.95 6.4 43.6 98 6.1 43 6.741 0.265
00:12 1016 30 845 24.95 6.5 43.6 98 6.1 43.1 6.741 0.265
00:13 1016 30 845 24.95 6.5 43.7 98 6.2 43.1 6.826 0.269
00:14 1016 30 845 24.95 6.5 43.7 98 6.2 43.2 6.877 0.271
00:15 1016 30 845 24.95 6.6 43.8 98 6.2 43.2 6.888 0.271
00:16 1016 30 845 24.95 6.6 43.8 98 6.3 43.3 6.866 0.27
00:17 1016 30 845 24.95 6.6 43.8 98 6.3 43.3 6.911 0.272
00:18 1016 30 845 24.95 6.6 43.9 98 6.3 43.3 6.951 0.274
00:19 1016 30 845 24.95 6.6 43.9 98 6.3 43.3 6.928 0.273
00:20 1016 30 845 24.95 6.7 44 98 6.3 43.4 6.979 0.275
00:21 1016 30 845 24.95 6.7 44 98 6.3 43.4 7.02 0.276
00:22 1016 30 845 24.95 6.7 44.1 98 6.4 43.5 7 0.276
00:23 1016 30 845 24.95 6.8 44.2 98 6.4 43.6 7.06 0.278
00:24 1016 30 845 24.95 6.7 44.1 98 6.4 43.5 7.05 0.278
00:25 1016 30 845 24.95 6.8 44.2 98 6.4 43.5 7.05 0.278
00:26 1016 30 845 24.95 6.8 44.3 98 6.4 43.6 7.06 0.278
00:27 1016 30 845 24.95 6.9 44.4 98 6.5 43.7 7.12 0.28
00:28 1016 30 845 24.95 6.9 44.4 98 6.5 43.7 7.15 0.281
00:29 1016 30 845 24.95 6.9 44.4 97 6.5 43.7 7.18 0.283
00:30 1016 30 845 24.95 6.9 44.4 97 6.5 43.7 7.18 0.283
00:31 1016 30 845 24.95 6.9 44.4 97 6.5 43.7 7.19 0.283
00:32 1016 30 845 24.95 6.9 44.5 97 6.5 43.8 7.18 0.283
00:33 1016 30 845 24.95 6.9 44.5 97 6.5 43.8 7.23 0.285
00:34 1016 30 845 24.95 7 44.5 97 6.6 43.8 7.26 0.286
00:35 1016 30 845 24.95 7 44.5 97 6.6 43.8 7.24 0.285
00:36 1016 30 845 24.95 7 44.6 97 6.6 43.9 7.3 0.287
00:37 1016 30 845 24.95 7 44.7 97 6.6 43.9 7.29 0.287
00:38 1016 30 845 24.95 7.1 44.7 97 6.6 44 7.31 0.288
00:39 1016 30 845 24.95 7.1 44.8 97 6.7 44 7.36 0.29
00:40 1016 30 845 24.95 7.1 44.8 97 6.7 44 7.36 0.29
00:41 1016 30 845 24.95 7.1 44.8 97 6.7 44.1 7.42 0.292
00:42 1016 30 845 24.95 7.1 44.8 97 6.7 44 7.42 0.292
00:43 1016 30 845 24.95 7.2 44.9 97 6.7 44.1 7.45 0.293
00:44 1016 30 845 24.95 7.2 44.9 97 6.7 44.1 7.44 0.293
00:45 1016 30 845 24.95 7.2 44.9 97 6.7 44.1 7.44 0.293
00:46 1016 30 845 24.95 7.2 44.9 97 6.7 44.1 7.49 0.295
00:47 1016 30 845 24.95 7.2 45 97 6.8 44.2 7.52 0.296
00:48 1016 30 845 24.95 7.2 44.9 97 6.7 44.1 7.53 0.296
00:49 1016 30 845 24.95 7.2 45 97 6.8 44.2 7.53 0.296
00:50 1016 30 845 24.95 7.2 45 97 6.8 44.3 7.56 0.298
00:51 1016 30 845 24.95 7.2 45 97 6.8 44.2 7.58 0.298
00:52 1016 30 845 24.95 7.3 45.1 97 6.8 44.2 7.54 0.297
00:53 1016 30 845 24.95 7.3 45.1 97 6.8 44.3 7.56 0.298
00:54 1016 30 845 24.95 7.3 45.1 97 6.8 44.3 7.57 0.298
00:55 1016 30 845 24.95 7.3 45.1 97 6.8 44.3 7.58 0.298
00:56 1016 30 845 24.95 7.3 45.1 97 6.8 44.3 7.61 0.3
00:57 1016 30 845 24.95 7.3 45.1 97 6.8 44.3 7.6 0.299
00:58 1016 30 845 24.95 7.3 45.1 97 6.8 44.3 7.56 0.298
00:59 1016 30 845 24.95 7.3 45.2 97 6.9 44.3 7.57 0.298
01:00 1016 30 845 24.95 7.3 45.1 97 6.8 44.3 7.57 0.298
01:01 1016 30 845 24.95 7.3 45.2 97 6.8 44.3 7.59 0.299
01:02 1016 30 845 24.95 7.3 45.2 97 6.8 44.3 7.57 0.298
01:03 1016 30 845 24.95 7.3 45.2 97 6.8 44.3 7.58 0.298
01:04 1016 30 845 24.95 7.3 45.2 97 6.8 44.3 7.58 0.298
01:05 1016 30 845 24.95 7.3 45.2 97 6.8 44.2 7.59 0.299
01:06 1016 30 845 24.95 7.3 45.2 97 6.8 44.3 7.59 0.299
01:07 1016 30 845 24.95 7.4 45.2 97 6.8 44.3 7.6 0.299
01:08 1016 30 845 24.95 7.4 45.3 97 6.9 44.4 7.64 0.301
01:09 1016 30 845 24.95 7.4 45.2 96 6.8 44.3 7.69 0.303
01:10 1016 30 845 24.95 7.4 45.3 97 6.9 44.3 7.69 0.303
01:11 1016 30 845 24.95 7.4 45.3 97 6.9 44.4 7.73 0.304
01:12 1016 30 845 24.95 7.5 45.4 97 6.9 44.5 7.77 0.306
01:13 1016 30 845 24.95 7.5 45.4 96 6.9 44.5 7.76 0.306
01:14 1016 30 845 24.95 7.4 45.4 97 6.9 44.4 7.75 0.305
01:15 1016 30 845 24.95 7.5 45.4 97 7 44.5 7.78 0.306
01:16 1016 30 845 24.95 7.5 45.5 97 7 44.5 7.81 0.307
01:17 1016 30 845 24.95 7.5 45.5 96 6.9 44.5 7.78 0.306
01:18 1016 30 845 24.95 7.5 45.5 96 6.9 44.5 7.79 0.307
01:19 1016 30 845 24.95 7.5 45.5 96 7 44.5 7.79 0.307
01:20 1016 30 845 24.95 7.5 45.5 96 6.9 44.5 7.78 0.306
01:21 1016 30 845 24.95 7.5 45.5 96 6.9 44.5 7.8 0.307
01:22 1016 30 845 24.95 7.5 45.4 96 6.9 44.4 7.81 0.307
01:23 1016 30 845 24.95 7.5 45.4 96 6.8 44.3 7.75 0.305
01:24 1016 30 845 24.95 7.5 45.5 96 6.8 44.3 7.81 0.307
01:25 1016 30 845 24.95 7.5 45.6 96 6.9 44.4 7.8 0.307
01:26 1016 30 845 24.95 7.5 45.5 96 6.9 44.3 7.83 0.308
01:27 1016 30 845 24.95 7.5 45.5 96 6.9 44.3 7.8 0.307
01:28 1016 30 845 24.95 7.6 45.6 96 6.9 44.4 7.82 0.308
01:29 1016 30 845 24.95 7.5 45.6 96 6.9 44.4 7.83 0.308
01:30 1016 30 845 24.95 7.6 45.6 96 6.9 44.4 7.88 0.31
01:31 1016 30 845 24.95 7.5 45.5 95 6.8 44.2 7.83 0.308
01:32 1016 30 845 24.95 7.6 45.6 95 6.9 44.4 7.83 0.308
01:33 1016 30 845 24.95 7.5 45.6 96 6.9 44.4 7.84 0.309
01:34 1016 30 845 24.95 7.6 45.6 96 6.9 44.5 7.91 0.311
01:35 1016 30 845 24.95 7.6 45.6 96 6.9 44.5 7.9 0.311
01:36 1016 30 845 24.95 7.6 45.6 96 6.9 44.5 7.9 0.311
01:37 1016 30 845 24.95 7.6 45.6 95 6.9 44.4 7.9 0.311
01:38 1016 30 845 24.95 7.6 45.6 95 6.8 44.2 7.9 0.311
01:39 1016 30 845 24.95 7.5 45.6 94 6.7 44.1 7.84 0.309
01:40 1016 30 845 24.95 7.6 45.6 95 6.8 44.2 7.85 0.309
01:41 1016 30 845 24.95 7.6 45.7 95 6.8 44.2 7.87 0.31
01:42 1016 30 845 24.95 7.5 45.6 94 6.7 44 7.88 0.31
01:43 1016 30 845 24.95 7.6 45.7 94 6.7 44.1 7.91 0.311
01:44 1016 30 845 24.95 7.6 45.7 94 6.8 44.2 7.91 0.311
01:45 1016 30 845 24.95 7.6 45.7 95 6.8 44.2 7.91 0.311
01:46 1016 30 845 24.95 7.6 45.7 95 6.8 44.2 7.91 0.311
01:47 1016 30 845 24.95 7.6 45.8 95 6.8 44.3 7.94 0.313
01:48 1015 29.97 845 24.95 7.6 45.7 95 6.8 44.2 7.94 0.313
01:49 1015 29.97 845 24.95 7.6 45.7 94 6.7 44 7.95 0.313
01:50 1015 29.97 845 24.95 7.6 45.7 94 6.6 43.9 7.87 0.31
01:51 1015 29.97 845 24.95 7.6 45.7 94 6.7 44 7.9 0.311
01:52 1015 29.97 845 24.95 7.7 45.8 94 6.7 44.1 7.92 0.312
01:53 1015 29.97 845 24.95 7.6 45.8 94 6.7 44 7.91 0.311
01:54 1015 29.97 845 24.95 7.6 45.7 94 6.7 44 7.92 0.312
01:55 1015 29.97 845 24.95 7.6 45.8 94 6.7 44.1 7.92 0.312
01:56 1015 29.97 845 24.95 7.6 45.7 94 6.7 44 7.9 0.311
01:57 1015 29.97 845 24.95 7.6 45.7 94 6.6 44 7.89 0.311
01:58 1015 29.97 845 24.95 7.7 45.8 94 6.7 44.1 7.92 0.312
01:59 1015 29.97 845 24.95 7.7 45.8 94 6.8 44.2 7.93 0.312
02:00 1015 29.97 845 24.95 7.7 45.8 94 6.8 44.2 7.93 0.312
02:01 1015 29.97 845 24.95 7.7 45.8 94 6.8 44.2 7.93 0.312
02:02 1015 29.97 845 24.95 7.7 45.8 94 6.8 44.2 7.96 0.313
02:03 1015 29.97 845 24.95 7.7 45.8 94 6.8 44.2 7.92 0.312
02:04 1015 29.97 845 24.95 7.7 45.8 94 6.8 44.2 7.97 0.314
02:05 1015 29.97 845 24.95 7.7 45.8 94 6.8 44.2 7.92 0.312
02:06 1015 29.97 844 24.92 7.6 45.7 94 6.7 44.1 7.95 0.313
02:07 1015 29.97 844 24.92 7.6 45.7 94 6.7 44.1 7.9 0.311
02:08 1015 29.97 844 24.92 7.6 45.7 94 6.7 44.1 7.92 0.312
02:09 1015 29.97 844 24.92 7.6 45.7 94 6.6 43.9 7.92 0.312
02:10 1015 29.97 844 24.92 7.6 45.7 93 6.6 44 7.92 0.312
02:11 1015 29.97 844 24.92 7.6 45.7 94 6.7 44 7.92 0.312
02:12 1015 29.97 844 24.92 7.6 45.8 93 6.6 44 7.96 0.313
02:13 1015 29.97 844 24.92 7.6 45.8 93 6.6 43.9 7.91 0.311
02:14 1015 29.97 844 24.92 7.7 45.8 94 6.7 44 7.94 0.313
02:15 1015 29.97 844 24.92 7.6 45.7 94 6.7 44.1 7.93 0.312
02:16 1015 29.97 844 24.92 7.6 45.8 94 6.7 44.1 7.94 0.313
02:17 1015 29.97 844 24.92 7.7 45.8 94 6.8 44.2 7.94 0.313
02:18 1015 29.97 844 24.92 7.6 45.7 94 6.7 44.1 7.97 0.314
02:19 1015 29.97 844 24.92 7.6 45.7 94 6.7 44.1 7.94 0.313
02:20 1015 29.97 844 24.92 7.6 45.7 94 6.7 44 7.94 0.313
02:21 1015 29.97 844 24.92 7.6 45.7 94 6.6 44 7.9 0.311
02:22 1015 29.97 844 24.92 7.6 45.7 94 6.7 44 7.91 0.311
02:23 1015 29.97 844 24.92 7.6 45.7 94 6.7 44.1 7.93 0.312
02:24 1015 29.97 844 24.92 7.6 45.7 94 6.7 44.1 7.97 0.314
02:25 1015 29.97 844 24.92 7.6 45.7 94 6.7 44.1 7.97 0.314
02:26 1015 29.97 844 24.92 7.6 45.7 94 6.8 44.2 7.95 0.313
02:27 1015 29.97 844 24.92 7.6 45.7 94 6.8 44.2 7.93 0.312
02:28 1015 29.97 844 24.92 7.6 45.7 95 6.8 44.2 7.97 0.314
02:29 1015 29.97 844 24.92 7.6 45.7 95 6.8 44.2 7.97 0.314
02:30 1015 29.97 844 24.92 7.6 45.7 95 6.8 44.2 7.96 0.313
02:31 1015 29.97 844 24.92 7.6 45.7 95 6.9 44.4 7.99 0.315
02:32 1015 29.97 844 24.92 7.6 45.7 95 6.9 44.3 7.97 0.314
02:33 1015 29.97 844 24.92 7.6 45.7 95 6.8 44.3 7.99 0.315
02:34 1015 29.97 844 24.92 7.6 45.7 95 6.9 44.4 7.98 0.314
02:35 1015 29.97 844 24.92 7.6 45.7 95 6.9 44.4 7.98 0.314
02:36 1015 29.97 844 24.92 7.6 45.7 95 6.8 44.3 7.97 0.314
02:37 1015 29.97 844 24.92 7.6 45.6 95 6.8 44.2 7.95 0.313
02:38 1015 29.97 844 24.92 7.6 45.7 95 6.8 44.2 7.94 0.313
02:39 1015 29.97 844 24.92 7.6 45.6 95 6.8 44.2 7.93 0.312
02:40 1015 29.97 844 24.92 7.6 45.7 94 6.7 44.1 7.92 0.312
02:41 1015 29.97 844 24.92 7.6 45.7 95 6.8 44.3 7.98 0.314
02:42 1015 29.97 844 24.92 7.6 45.7 95 6.8 44.3 7.93 0.312
02:43 1015 29.97 844 24.92 7.6 45.7 95 6.8 44.2 8.01 0.315
02:44 1015 29.97 844 24.92 7.6 45.8 94 6.8 44.2 7.96 0.313
02:45 1015 29.97 844 24.92 7.6 45.7 94 6.7 44.1 7.95 0.313
02:46 1015 29.97 844 24.92 7.7 45.8 94 6.7 44.1 7.94 0.313
02:47 1015 29.97 844 24.92 7.7 45.8 94 6.7 44 7.96 0.313
02:48 1015 29.97 844 24.92 7.7 45.8 94 6.7 44.1 7.98 0.314
02:49 1015 29.97 844 24.92 7.7 45.8 94 6.8 44.2 7.99 0.315
02:50 1015 29.97 845 24.95 7.6 45.8 94 6.8 44.2 7.97 0.314
02:51 1015 29.97 845 24.95 7.6 45.7 95 6.8 44.3 7.95 0.313
02:52 1015 29.97 845 24.95 7.6 45.7 95 6.8 44.2 7.98 0.314
02:53 1015 29.97 845 24.95 7.7 45.8 94 6.8 44.3 7.98 0.314
02:54 1015 29.97 845 24.95 7.6 45.7 94 6.7 44.1 7.96 0.313
02:55 1015 29.97 845 24.95 7.7 45.8 94 6.8 44.2 7.99 0.315
02:56 1015 29.97 844 24.92 7.7 45.8 94 6.8 44.2 7.98 0.314
02:57 1015 29.97 844 24.92 7.7 45.8 94 6.8 44.2 7.92 0.312
02:58 1015 29.97 844 24.92 7.6 45.7 94 6.7 44 7.99 0.315
02:59 1015 29.97 844 24.92 7.6 45.7 93 6.6 43.9 7.96 0.313
03:00 1015 29.97 844 24.92 7.6 45.8 94 6.7 44.1 7.95 0.313
03:01 1015 29.97 844 24.92 7.7 45.8 94 6.7 44 7.94 0.313
03:02 1015 29.97 844 24.92 7.7 45.8 94 6.7 44 7.98 0.314
03:03 1015 29.97 844 24.92 7.7 45.8 94 6.7 44 7.98 0.314
03:04 1015 29.97 844 24.92 7.6 45.8 94 6.7 44 7.95 0.313
03:05 1015 29.97 844 24.92 7.6 45.7 94 6.7 44 7.97 0.314
03:06 1015 29.97 844 24.92 7.7 45.8 94 6.7 44.1 7.95 0.313
03:07 1015 29.97 844 24.92 7.6 45.7 94 6.7 44 7.94 0.313
03:08 1015 29.97 844 24.92 7.6 45.6 94 6.6 43.9 7.92 0.312
03:09 1015 29.97 844 24.92 7.6 45.6 94 6.7 44 7.94 0.313
03:10 1015 29.97 844 24.92 7.6 45.7 94 6.7 44.1 7.94 0.313
03:11 1015 29.97 844 24.92 7.6 45.6 94 6.6 43.9 7.95 0.313
03:12 1015 29.97 844 24.92 7.6 45.6 94 6.6 43.9 7.94 0.313
03:13 1015 29.97 844 24.92 7.6 45.7 94 6.6 43.9 7.92 0.312
03:14 1015 29.97 844 24.92 7.6 45.6 94 6.6 43.9 7.92 0.312
03:15 1015 29.97 844 24.92 7.6 45.7 93 6.6 43.8 7.92 0.312
03:16 1015 29.97 844 24.92 7.6 45.6 94 6.6 43.9 7.93 0.312
03:17 1015 29.97 844 24.92 7.6 45.7 94 6.6 43.9 7.94 0.313
03:18 1015 29.97 844 24.92 7.6 45.6 94 6.6 43.9 7.93 0.312
03:19 1015 29.97 844 24.92 7.6 45.7 94 6.7 44 7.92 0.312
03:20 1015 29.97 844 24.92 7.6 45.7 94 6.6 44 7.94 0.313
03:21 1015 29.97 844 24.92 7.6 45.7 94 6.7 44 7.95 0.313
03:22 1015 29.97 844 24.92 7.6 45.7 94 6.7 44.1 7.98 0.314
03:23 1015 29.97 844 24.92 7.6 45.7 94 6.7 44.1 7.96 0.313
03:24 1015 29.97 844 24.92 7.6 45.7 94 6.8 44.2 7.95 0.313
03:25 1015 29.97 844 24.92 7.6 45.7 94 6.8 44.2 7.98 0.314
03:26 1015 29.97 844 24.92 7.6 45.7 95 6.8 44.3 8 0.315
03:27 1015 29.97 844 24.92 7.6 45.7 94 6.8 44.2 8.02 0.316
03:28 1015 29.97 844 24.92 7.6 45.7 94 6.7 44.1 7.99 0.315
03:29 1015 29.97 844 24.92 7.6 45.7 94 6.7 44.1 8 0.315
03:30 1015 29.97 844 24.92 7.6 45.8 94 6.7 44.1 8 0.315
03:31 1015 29.97 844 24.92 7.7 45.8 94 6.7 44 7.95 0.313
03:32 1015 29.97 844 24.92 7.7 45.8 94 6.7 44.1 7.94 0.313
03:33 1015 29.97 844 24.92 7.6 45.8 94 6.7 44.1 7.98 0.314
03:34 1015 29.97 844 24.92 7.7 45.8 94 6.7 44.1 7.98 0.314
03:35 1015 29.97 844 24.92 7.7 45.8 94 6.7 44 7.94 0.313
03:36 1015 29.97 844 24.92 7.6 45.7 94 6.7 44 7.95 0.313
03:37 1015 29.97 844 24.92 7.6 45.8 94 6.7 44.1 7.9 0.311
03:38 1015 29.97 844 24.92 7.7 45.8 94 6.7 44.1 7.97 0.314
03:39 1015 29.97 844 24.92 7.6 45.8 93 6.6 44 7.94 0.313
03:40 1015 29.97 844 24.92 7.6 45.7 94 6.7 44 7.95 0.313
03:41 1015 29.97 844 24.92 7.7 45.8 94 6.7 44.1 7.97 0.314
03:42 1015 29.97 844 24.92 7.7 45.8 94 6.7 44.1 7.99 0.315
03:43 1015 29.97 844 24.92 7.7 45.8 94 6.8 44.2 8.01 0.315
03:44 1015 29.97 844 24.92 7.7 45.9 94 6.8 44.2 8.02 0.316
03:45 1015 29.97 844 24.92 7.7 45.8 94 6.8 44.3 8.01 0.315
03:46 1015 29.97 844 24.92 7.7 45.8 94 6.8 44.2 8 0.315
03:47 1015 29.97 844 24.92 7.7 45.9 94 6.8 44.3 7.96 0.313
03:48 1015 29.97 844 24.92 7.7 45.8 94 6.8 44.2 8.02 0.316
03:49 1015 29.97 844 24.92 7.7 45.8 94 6.8 44.3 7.99 0.315
03:50 1015 29.97 844 24.92 7.7 45.8 94 6.8 44.2 8.02 0.316
03:51 1015 29.97 844 24.92 7.7 45.8 94 6.8 44.3 7.99 0.315
03:52 1015 29.97 844 24.92 7.6 45.8 94 6.8 44.2 8.03 0.316
03:53 1015 29.97 844 24.92 7.7 45.8 94 6.8 44.3 8 0.315
03:54 1015 29.97 844 24.92 7.7 45.8 95 6.9 44.4 8.01 0.315
03:55 1015 29.97 844 24.92 7.7 45.8 95 6.9 44.4 8.02 0.316
03:56 1015 29.97 844 24.92 7.7 45.8 95 6.9 44.4 7.98 0.314
03:57 1015 29.97 844 24.92 7.7 45.8 95 6.9 44.4 7.97 0.314
03:58 1015 29.97 844 24.92 7.7 45.8 95 6.9 44.4 8 0.315
03:59 1015 29.97 844 24.92 7.7 45.8 95 6.9 44.5 8.01 0.315
04:00 1015 29.97 844 24.92 7.6 45.8 95 6.9 44.4 8 0.315
04:01 1015 29.97 844 24.92 7.6 45.7 95 6.9 44.4 7.96 0.313
04:02 1015 29.97 844 24.92 7.6 45.7 95 6.9 44.4 7.98 0.314
04:03 1015 29.97 844 24.92 7.6 45.7 95 6.9 44.4 7.99 0.315
04:04 1015 29.97 844 24.92 7.6 45.7 95 6.8 44.3 7.95 0.313
04:05 1015 29.97 844 24.92 7.6 45.6 95 6.8 44.3 7.94 0.313
04:06 1015 29.97 844 24.92 7.6 45.7 95 6.9 44.3 7.91 0.311
04:07 1015 29.97 844 24.92 7.6 45.6 95 6.9 44.4 7.96 0.313
04:08 1015 29.97 844 24.92 7.6 45.7 95 6.9 44.4 7.97 0.314
04:09 1015 29.97 844 24.92 7.6 45.7 95 6.9 44.4 7.95 0.313
04:10 1015 29.97 844 24.92 7.6 45.7 95 6.9 44.4 7.92 0.312
04:11 1015 29.97 844 24.92 7.6 45.7 95 6.9 44.4 7.94 0.313
04:12 1015 29.97 844 24.92 7.6 45.7 95 6.9 44.4 7.96 0.313
04:13 1015 29.97 844 24.92 7.6 45.7 95 6.9 44.3 7.94 0.313
04:14 1015 29.97 844 24.92 7.6 45.6 95 6.8 44.3 7.92 0.312
04:15 1015 29.97 844 24.92 7.6 45.7 95 6.9 44.3 7.9 0.311
04:16 1015 29.97 844 24.92 7.5 45.6 95 6.8 44.2 7.9 0.311
04:17 1015 29.97 844 24.92 7.5 45.6 95 6.8 44.3 7.86 0.309
04:18 1015 29.97 844 24.92 7.5 45.5 95 6.8 44.3 7.84 0.309
04:19 1015 29.97 844 24.92 7.5 45.5 95 6.8 44.2 7.81 0.307
04:20 1015 29.97 844 24.92 7.4 45.3 96 6.8 44.2 7.78 0.306
04:21 1015 29.97 844 24.92 7.4 45.3 96 6.8 44.2 7.73 0.304
04:22 1015 29.97 844 24.92 7.4 45.2 96 6.8 44.2 7.73 0.304
04:23 1015 29.97 844 24.92 7.3 45.2 96 6.7 44.1 7.69 0.303
04:24 1015 29.97 844 24.92 7.3 45.2 96 6.7 44.1 7.66 0.302
04:25 1015 29.97 844 24.92 7.3 45.1 96 6.7 44.1 7.64 0.301
04:26 1015 29.97 844 24.92 7.3 45.1 96 6.7 44.1 7.65 0.301
04:27 1015 29.97 844 24.92 7.3 45.1 97 6.7 44.1 7.61 0.3
04:28 1015 29.97 844 24.92 7.2 45 97 6.7 44 7.56 0.298
04:29 1015 29.97 844 24.92 7.2 45 97 6.7 44.1 7.6 0.299
04:30 1015 29.97 844 24.92 7.2 45 97 6.7 44.1 7.57 0.298
04:31 1015 29.97 844 24.92 7.2 45 97 6.7 44.1 7.57 0.298
04:32 1015 29.97 844 24.92 7.2 44.9 97 6.7 44.1 7.6 0.299
04:33 1015 29.97 844 24.92 7.2 44.9 97 6.7 44.1 7.55 0.297
04:34 1015 29.97 844 24.92 7.2 45 97 6.8 44.2 7.6 0.299
04:35 1015 29.97 844 24.92 7.2 44.9 97 6.7 44.1 7.56 0.298
04:36 1015 29.97 844 24.92 7.2 44.9 97 6.8 44.2 7.59 0.299
04:37 1015 29.97 844 24.92 7.2 44.9 97 6.8 44.2 7.55 0.297
04:38 1015 29.97 844 24.92 7.2 45 97 6.8 44.3 7.55 0.297
04:39 1015 29.97 844 24.92 7.2 45 97 6.8 44.2 7.57 0.298
04:40 1015 29.97 844 24.92 7.2 44.9 97 6.8 44.2 7.58 0.298
04:41 1015 29.97 844 24.92 7.2 45 97 6.8 44.3 7.57 0.298
04:42 1015 29.97 844 24.92 7.2 45 97 6.8 44.2 7.57 0.298
04:43 1015 29.97 844 24.92 7.2 44.9 97 6.8 44.2 7.55 0.297
04:44 1015 29.97 844 24.92 7.1 44.8 97 6.7 44.1 7.57 0.298
04:45 1015 29.97 844 24.92 7.2 44.9 97 6.8 44.2 7.59 0.299
04:46 1015 29.97 844 24.92 7.2 44.9 97 6.8 44.2 7.51 0.296
04:47 1015 29.97 844 24.92 7.2 44.9 97 6.8 44.2 7.53 0.296
04:48 1015 29.97 844 24.92 7.2 44.9 97 6.8 44.2 7.56 0.298
04:49 1015 29.97 844 24.92 7.2 44.9 98 6.8 44.2 7.59 0.299
04:50 1015 29.97 844 24.92 7.1 44.9 98 6.8 44.2 7.55 0.297
04:51 1015 29.97 844 24.92 7.2 44.9 98 6.8 44.3 7.57 0.298
04:52 1015 29.97 844 24.92 7.2 44.9 98 6.8 44.2 7.57 0.298
04:53 1015 29.97 844 24.92 7.2 44.9 98 6.8 44.2 7.52 0.296
04:54 1015 29.97 844 24.92 7.1 44.8 98 6.8 44.2 7.53 0.296
04:55 1015 29.97 844 24.92 7.2 44.9 98 6.8 44.3 7.51 0.296
04:56 1015 29.97 844 24.92 7.2 44.9 98 6.8 44.2 7.52 0.296
04:57 1015 29.97 844 24.92 7.1 44.9 98 6.8 44.2 7.52 0.296
04:58 1015 29.97 844 24.92 7.1 44.8 98 6.8 44.2 7.52 0.296
04:59 1015 29.97 844 24.92 7.1 44.8 98 6.8 44.2 7.48 0.294
05:00 1015 29.97 844 24.92 7.1 44.8 98 6.8 44.2 7.49 0.295
05:01 1015 29.97 844 24.92 7.1 44.8 98 6.8 44.2 7.53 0.296
05:02 1015 29.97 844 24.92 7.1 44.8 98 6.8 44.2 7.49 0.295
05:03 1015 29.97 844 24.92 7.1 44.8 98 6.8 44.2 7.55 0.297
05:04 1015 29.97 844 24.92 7.1 44.9 98 6.8 44.2 7.53 0.296
05:05 1015 29.97 844 24.92 7.2 44.9 98 6.8 44.3 7.54 0.297
05:06 1015 29.97 844 24.92 7.1 44.8 98 6.8 44.2 7.52 0.296
05:07 1015 29.97 844 24.92 7.2 44.9 98 6.9 44.3 7.57 0.298
05:08 1015 29.97 844 24.92 7.1 44.9 98 6.8 44.2 7.55 0.297
05:09 1015 29.97 844 24.92 7.2 44.9 98 6.8 44.3 7.56 0.298
05:10 1015 29.97 844 24.92 7.2 44.9 98 6.8 44.3 7.6 0.299
05:11 1015 29.97 844 24.92 7.2 44.9 98 6.8 44.3 7.56 0.298
05:12 1015 29.97 844 24.92 7.1 44.8 98 6.8 44.2 7.56 0.298
05:13 1015 29.97 844 24.92 7.2 44.9 98 6.8 44.3 7.57 0.298
05:14 1015 29.97 844 24.92 7.2 44.9 98 6.8 44.3 7.62 0.3
05:15 1015 29.97 844 24.92 7.2 44.9 98 6.8 44.3 7.6 0.299
05:16 1015 29.97 844 24.92 7.2 44.9 98 6.8 44.3 7.57 0.298
05:17 1015 29.97 844 24.92 7.1 44.9 98 6.8 44.2 7.53 0.296
05:18 1015 29.97 844 24.92 7.1 44.8 98 6.8 44.2 7.52 0.296
05:19 1015 29.97 844 24.92 7.1 44.8 98 6.8 44.2 7.51 0.296
05:20 1015 29.97 844 24.92 7.1 44.8 98 6.8 44.2 7.53 0.296
05:21 1015 29.97 844 24.92 7.1 44.8 98 6.8 44.3 7.53 0.296
05:22 1015 29.97 844 24.92 7.1 44.8 98 6.8 44.2 7.5 0.295
05:23 1015 29.97 844 24.92 7.1 44.8 98 6.8 44.2 7.51 0.296
05:24 1015 29.97 844 24.92 7.1 44.7 98 6.8 44.2 7.52 0.296
05:25 1015 29.97 844 24.92 7.1 44.8 98 6.8 44.2 7.49 0.295
05:26 1015 29.97 844 24.92 7.1 44.8 98 6.8 44.3 7.53 0.296
05:27 1015 29.97 844 24.92 7.1 44.8 98 6.8 44.2 7.49 0.295
05:28 1015 29.97 844 24.92 7.1 44.8 98 6.8 44.3 7.47 0.294
05:29 1015 29.97 844 24.92 7.1 44.8 98 6.8 44.2 7.51 0.296
05:30 1015 29.97 844 24.92 7.1 44.8 98 6.8 44.2 7.46 0.294
05:31 1015 29.97 844 24.92 7.1 44.8 98 6.8 44.3 7.51 0.296
05:32 1015 29.97 844 24.92 7.1 44.8 98 6.8 44.2 7.49 0.295
05:33 1015 29.97 844 24.92 7.1 44.8 98 6.8 44.3 7.46 0.294
05:34 1015 29.97 844 24.92 7.1 44.8 98 6.8 44.2 7.51 0.296
05:35 1015 29.97 844 24.92 7.1 44.7 98 6.8 44.2 7.5 0.295
05:36 1015 29.97 844 24.92 7.1 44.8 98 6.8 44.3 7.52 0.296
05:37 1015 29.97 844 24.92 7.1 44.8 98 6.8 44.2 7.51 0.296
05:38 1015 29.97 844 24.92 7.1 44.8 98 6.8 44.2 7.52 0.296
05:39 1015 29.97 844 24.92 7.1 44.7 98 6.8 44.2 7.51 0.296
05:40 1015 29.97 844 24.92 7.1 44.8 98 6.8 44.3 7.49 0.295
05:41 1015 29.97 844 24.92 7.1 44.7 98 6.8 44.2 7.53 0.296
05:42 1015 29.97 844 24.92 7.1 44.8 98 6.8 44.3 7.54 0.297
05:43 1015 29.97 844 24.92 7.1 44.8 98 6.8 44.3 7.51 0.296
05:44 1015 29.97 844 24.92 7.1 44.7 98 6.8 44.2 7.53 0.296
05:45 1015 29.97 844 24.92 7.1 44.8 98 6.8 44.3 7.51 0.296
05:46 1015 29.97 844 24.92 7.1 44.8 98 6.8 44.3 7.52 0.296
05:47 1015 29.97 844 24.92 7.1 44.8 98 6.8 44.3 7.52 0.296
05:48 1015 29.97 844 24.92 7.1 44.8 98 6.8 44.3 7.53 0.296
05:49 1015 29.97 844 24.92 7.1 44.9 98 6.8 44.3 7.55 0.297
05:50 1015 29.97 844 24.92 7.1 44.8 98 6.9 44.3 7.53 0.296
05:51 1015 29.97 844 24.92 7.1 44.9 98 6.8 44.3 7.53 0.296
05:52 1015 29.97 844 24.92 7.1 44.8 98 6.9 44.3 7.53 0.296
05:53 1015 29.97 844 24.92 7.1 44.9 98 6.9 44.4 7.52 0.296
05:54 1015 29.97 844 24.92 7.1 44.9 98 6.9 44.4 7.52 0.296
05:55 1015 29.97 844 24.92 7.2 44.9 98 6.9 44.4 7.57 0.298
05:56 1015 29.97 844 24.92 7.2 44.9 98 6.9 44.4 7.52 0.296
05:57 1015 29.97 844 24.92 7.1 44.8 98 6.8 44.3 7.52 0.296
05:58 1015 29.97 844 24.92 7.1 44.8 98 6.9 44.3 7.51 0.296
05:59 1015 29.97 844 24.92 7.1 44.8 98 6.9 44.3 7.5 0.295
06:00 1015 29.97 844 24.92 7.1 44.8 98 6.8 44.3 7.51 0.296
06:01 1015 29.97 844 24.92 7.1 44.8 98 6.9 44.3 7.49 0.295
06:02 1015 29.97 844 24.92 7.1 44.7 98 6.8 44.2 7.46 0.294
06:03 1015 29.97 844 24.92 7.1 44.8 98 6.8 44.3 7.5 0.295
06:04 1015 29.97 844 24.92 7.1 44.8 98 6.8 44.3 7.5 0.295
06:05 1015 29.97 844 24.92 7.1 44.8 98 6.9 44.3 7.47 0.294
06:06 1015 29.97 844 24.92 7.2 44.9 98 6.9 44.4 7.52 0.296
06:07 1015 29.97 844 24.92 7.1 44.8 98 6.9 44.3 7.45 0.293
06:08 1015 29.97 844 24.92 7.1 44.8 98 6.9 44.4 7.51 0.296
06:09 1015 29.97 844 24.92 7.1 44.8 98 6.9 44.3 7.52 0.296
06:10 1015 29.97 844 24.92 7.1 44.8 98 6.8 44.3 7.48 0.294
06:11 1015 29.97 844 24.92 7.1 44.7 98 6.8 44.3 7.44 0.293
06:12 1015 29.97 844 24.92 7.1 44.7 98 6.8 44.3 7.5 0.295
06:13 1015 29.97 844 24.92 7.1 44.7 98 6.8 44.3 7.44 0.293
06:14 1015 29.97 844 24.92 7.1 44.7 98 6.8 44.3 7.5 0.295
06:15 1015 29.97 844 24.92 7.1 44.7 98 6.8 44.2 7.46 0.294
06:16 1015 29.97 844 24.92 7.1 44.8 98 6.8 44.3 7.47 0.294
06:17 1015 29.97 844 24.92 7.1 44.7 98 6.8 44.2 7.47 0.294
06:18 1015 29.97 844 24.92 7.1 44.7 98 6.8 44.3 7.48 0.294
06:19 1015 29.97 844 24.92 7.1 44.8 98 6.8 44.3 7.44 0.293
06:20 1015 29.97 844 24.92 7.1 44.8 98 6.8 44.3 7.49 0.295
06:21 1015 29.97 844 24.92 7.1 44.8 98 6.8 44.3 7.48 0.294
06:22 1015 29.97 844 24.92 7.1 44.8 98 6.8 44.3 7.48 0.294
06:23 1015 29.97 844 24.92 7.1 44.8 98 6.8 44.3 7.44 0.293
06:24 1015 29.97 844 24.92 7.1 44.7 98 6.8 44.2 7.47 0.294
06:25 1015 29.97 844 24.92 7.1 44.8 98 6.9 44.4 7.48 0.294
06:26 1015 29.97 844 24.92 7.1 44.8 98 6.8 44.3 7.48 0.294
06:27 1015 29.97 844 24.92 7.1 44.8 98 6.9 44.3 7.52 0.296
06:28 1015 29.97 844 24.92 7.1 44.8 98 6.9 44.3 7.51 0.296
06:29 1015 29.97 844 24.92 7.1 44.8 98 6.9 44.3 7.48 0.294
06:30 1015 29.97 844 24.92 7.1 44.8 98 6.9 44.4 7.52 0.296
06:31 1015 29.97 844 24.92 7.2 44.9 98 6.9 44.4 7.52 0.296
06:32 1015 29.97 844 24.92 7.1 44.8 98 6.9 44.3 7.5 0.295
06:33 1015 29.97 844 24.92 7.1 44.7 98 6.8 44.3 7.51 0.296
06:34 1015 29.97 844 24.92 7.1 44.7 98 6.8 44.2 7.48 0.294
06:35 1015 29.97 844 24.92 7.1 44.7 98 6.8 44.3 7.44 0.293
06:36 1015 29.97 844 24.92 7.1 44.8 98 6.9 44.3 7.51 0.296
06:37 1015 29.97 844 24.92 7.1 44.8 98 6.8 44.3 7.46 0.294
06:38 1015 29.97 844 24.92 7.1 44.8 98 6.8 44.3 7.47 0.294
06:39 1015 29.97 844 24.92 7.1 44.8 98 6.9 44.4 7.48 0.294
06:40 1015 29.97 844 24.92 7.1 44.8 98 6.8 44.3 7.51 0.296
06:41 1015 29.97 844 24.92 7.1 44.8 98 6.9 44.4 7.47 0.294
06:42 1015 29.97 844 24.92 7.1 44.8 98 6.8 44.3 7.49 0.295
06:43 1015 29.97 844 24.92 7.1 44.7 98 6.8 44.2 7.48 0.294
06:44 1015 29.97 844 24.92 7.1 44.8 98 6.9 44.3 7.47 0.294
06:45 1015 29.97 844 24.92 7.1 44.8 98 6.8 44.3 7.47 0.294
06:46 1015 29.97 844 24.92 7.1 44.7 98 6.8 44.3 7.5 0.295
06:47 1015 29.97 844 24.92 7.1 44.8 98 6.8 44.3 7.5 0.295
06:48 1015 29.97 844 24.92 7.1 44.8 98 6.9 44.3 7.51 0.296
06:49 1015 29.97 844 24.92 7.1 44.8 98 6.8 44.3 7.51 0.296
06:50 1015 29.97 844 24.92 7.1 44.7 98 6.8 44.2 7.51 0.296
06:51 1015 29.97 844 24.92 7.1 44.7 98 6.8 44.3 7.46 0.294
06:52 1015 29.97 844 24.92 7.1 44.7 98 6.8 44.2 7.5 0.295
06:53 1015 29.97 844 24.92 7.1 44.7 98 6.8 44.2 7.48 0.294
06:54 1015 29.97 844 24.92 7.1 44.7 98 6.8 44.3 7.5 0.295
06:55 1015 29.97 844 24.92 7.1 44.7 98 6.8 44.3 7.51 0.296
06:56 1015 29.97 844 24.92 7.1 44.8 98 6.8 44.3 7.48 0.294
06:57 1015 29.97 844 24.92 7.1 44.7 98 6.8 44.3 7.5 0.295
06:58 1015 29.97 844 24.92 7.1 44.8 98 6.8 44.3 7.49 0.295
06:59 1015 29.97 844 24.92 7.1 44.7 98 6.8 44.3 7.47 0.294
07:00 1015 29.97 844 24.92 7.1 44.8 98 6.8 44.3 7.49 0.295
07:01 1015 29.97 844 24.92 7.1 44.8 98 6.8 44.3 7.51 0.296
07:02 1015 29.97 844 24.92 7.1 44.7 98 6.8 44.3 7.5 0.295
07:03 1015 29.97 844 24.92 7.1 44.8 98 6.9 44.4 7.49 0.295
07:04 1015 29.97 844 24.92 7.1 44.8 98 6.9 44.4 7.49 0.295
07:05 1015 29.97 844 24.92 7.1 44.8 98 6.9 44.3 7.47 0.294
07:06 1015 29.97 844 24.92 7.1 44.8 98 6.9 44.4 7.52 0.296
07:07 1015 29.97 844 24.92 7.1 44.8 98 6.9 44.4 7.52 0.296
07:08 1015 29.97 844 24.92 7.2 44.9 98 6.9 44.4 7.53 0.296
07:09 1015 29.97 844 24.92 7.2 45 98 7 44.5 7.56 0.298
07:10 1015 29.97 844 24.92 7.2 45 98 7 44.5 7.58 0.298
07:11 1015 29.97 844 24.92 7.2 45 99 7 44.6 7.63 0.3
07:12 1015 29.97 844 24.92 7.3 45.1 98 7 44.6 7.64 0.301
07:13 1015 29.97 844 24.92 7.3 45.1 98 7 44.6 7.7 0.303
07:14 1015 29.97 844 24.92 7.3 45.1 98 7 44.7 7.71 0.304
07:15 1015 29.97 844 24.92 7.3 45.2 98 7.1 44.8 7.74 0.305
07:16 1015 29.97 844 24.92 7.3 45.2 98 7.1 44.7 7.77 0.306
07:17 1015 29.97 844 24.92 7.4 45.2 99 7.1 44.9 7.75 0.305
07:18 1015 29.97 844 24.92 7.3 45.2 98 7.1 44.8 7.71 0.304
07:19 1015 29.97 844 24.92 7.3 45.1 98 7 44.7 7.66 0.302
07:20 1015 29.97 844 24.92 7.3 45.2 98 7.1 44.7 7.71 0.304
07:21 1015 29.97 844 24.92 7.4 45.2 98 7.1 44.8 7.71 0.304
07:22 1015 29.97 844 24.92 7.3 45.2 98 7.1 44.7 7.7 0.303
07:23 1015 29.97 844 24.92 7.4 45.3 98 7.1 44.8 7.73 0.304
07:24 1015 29.97 844 24.92 7.4 45.2 98 7.1 44.8 7.72 0.304
07:25 1015 29.97 844 24.92 7.4 45.3 98 7.1 44.8 7.72 0.304
07:26 1015 29.97 844 24.92 7.3 45.2 98 7.1 44.7 7.69 0.303
07:27 1015 29.97 844 24.92 7.3 45.2 98 7.1 44.7 7.67 0.302
07:28 1015 29.97 844 24.92 7.4 45.3 98 7.1 44.7 7.65 0.301
07:29 1014 29.94 844 24.92 7.4 45.2 98 7.1 44.7 7.72 0.304
07:30 1014 29.94 844 24.92 7.4 45.3 98 7.1 44.8 7.71 0.304
07:31 1014 29.94 844 24.92 7.4 45.3 98 7.1 44.8 7.72 0.304
07:32 1014 29.94 844 24.92 7.3 45.2 98 7 44.7 7.71 0.304
07:33 1014 29.94 844 24.92 7.4 45.3 98 7.1 44.7 7.67 0.302
07:34 1014 29.94 844 24.92 7.3 45.2 98 7 44.7 7.69 0.303
07:35 1014 29.94 844 24.92 7.3 45.2 98 7 44.7 7.69 0.303
07:36 1014 29.94 844 24.92 7.3 45.2 98 7 44.7 7.74 0.305
07:37 1014 29.94 844 24.92 7.4 45.3 98 7.1 44.7 7.73 0.304
07:38 1014 29.94 844 24.92 7.3 45.2 98 7 44.7 7.69 0.303
07:39 1014 29.94 844 24.92 7.4 45.4 98 7.1 44.8 7.7 0.303
07:40 1014 29.94 844 24.92 7.4 45.3 98 7.1 44.7 7.73 0.304
07:41 1014 29.94 844 24.92 7.4 45.2 98 7 44.7 7.7 0.303
07:42 1014 29.94 844 24.92 7.4 45.3 98 7.1 44.7 7.74 0.305
07:43 1014 29.94 844 24.92 7.4 45.4 98 7.1 44.8 7.73 0.304
07:44 1014 29.94 844 24.92 7.4 45.3 98 7.1 44.7 7.74 0.305
07:45 1014 29.94 844 24.92 7.4 45.4 98 7.1 44.8 7.74 0.305
07:46 1014 29.94 844 24.92 7.4 45.4 98 7.1 44.8 7.81 0.307
07:47 1014 29.94 844 24.92 7.4 45.3 98 7.1 44.7 7.75 0.305
07:48 1014 29.94 844 24.92 7.4 45.3 98 7 44.7 7.74 0.305
07:49 1014 29.94 844 24.92 7.4 45.3 98 7.1 44.8 7.72 0.304
07:50 1015 29.97 844 24.92 7.4 45.3 98 7.1 44.7 7.7 0.303
07:51 1015 29.97 844 24.92 7.4 45.2 98 7 44.7 7.72 0.304
07:52 1015 29.97 844 24.92 7.4 45.2 98 7 44.7 7.69 0.303
07:53 1015 29.97 844 24.92 7.3 45.2 98 7 44.6 7.67 0.302
07:54 1015 29.97 844 24.92 7.4 45.3 98 7.1 44.7 7.7 0.303
07:55 1015 29.97 844 24.92 7.4 45.2 98 7 44.6 7.68 0.302
07:56 1015 29.97 844 24.92 7.4 45.3 98 7.1 44.7 7.73 0.304
07:57 1015 29.97 844 24.92 7.4 45.3 98 7 44.7 7.69 0.303
07:58 1015 29.97 844 24.92 7.4 45.3 98 7 44.7 7.7 0.303
07:59 1015 29.97 844 24.92 7.4 45.3 98 7 44.7 7.72 0.304
08:00 1015 29.97 844 24.92 7.4 45.4 98 7.1 44.8 7.74 0.305
08:01 1015 29.97 844 24.92 7.4 45.3 98 7.1 44.8 7.76 0.306
08:02 1015 29.97 844 24.92 7.4 45.4 98 7.1 44.8 7.76 0.306
08:03 1015 29.97 845 24.95 7.4 45.4 98 7.1 44.8 7.8 0.307
08:04 1015 29.97 845 24.95 7.4 45.4 98 7.1 44.7 7.77 0.306
08:05 1015 29.97 845 24.95 7.4 45.4 98 7.1 44.8 7.75 0.305
08:06 1015 29.97 845 24.95 7.5 45.4 98 7.1 44.8 7.74 0.305
08:07 1015 29.97 845 24.95 7.5 45.4 98 7.1 44.8 7.75 0.305
08:08 1015 29.97 845 24.95 7.4 45.4 98 7.1 44.8 7.77 0.306
08:09 1015 29.97 844 24.92 7.4 45.4 98 7.1 44.7 7.78 0.306
08:10 1015 29.97 844 24.92 7.4 45.4 97 7 44.7 7.73 0.304
08:11 1015 29.97 844 24.92 7.4 45.3 97 7 44.5 7.66 0.302
08:12 1015 29.97 844 24.92 7.3 45.1 97 6.9 44.4 7.66 0.302
08:13 1015 29.97 844 24.92 7.3 45.1 97 6.9 44.5 7.64 0.301
08:14 1015 29.97 844 24.92 7.3 45.2 97 7 44.5 7.65 0.301
08:15 1015 29.97 844 24.92 7.3 45.1 98 6.9 44.5 7.63 0.3
08:16 1015 29.97 844 24.92 7.3 45.1 98 6.9 44.5 7.61 0.3
08:17 1015 29.97 844 24.92 7.3 45.1 98 6.9 44.5 7.68 0.302
08:18 1015 29.97 844 24.92 7.3 45.1 98 6.9 44.5 7.62 0.3
08:19 1015 29.97 844 24.92 7.3 45.1 98 6.9 44.5 7.62 0.3
08:20 1014 29.94 844 24.92 7.3 45.1 98 7 44.6 7.65 0.301
08:21 1014 29.94 844 24.92 7.3 45.1 98 6.9 44.5 7.62 0.3
08:22 1014 29.94 844 24.92 7.3 45.1 98 7 44.6 7.66 0.302
08:23 1014 29.94 844 24.92 7.4 45.2 98 7.1 44.7 7.74 0.305
08:24 1014 29.94 844 24.92 7.4 45.3 98 7.1 44.8 7.78 0.306
08:25 1014 29.94 844 24.92 7.5 45.5 98 7.2 45 7.88 0.31
08:26 1015 29.97 844 24.92 7.5 45.5 98 7.2 45 7.93 0.312
08:27 1015 29.97 844 24.92 7.5 45.6 98 7.2 45 7.91 0.311
08:28 1015 29.97 844 24.92 7.5 45.6 98 7.2 45 7.94 0.313
08:29 1015 29.97 844 24.92 7.6 45.7 98 7.3 45.1 7.95 0.313
08:30 1015 29.97 844 24.92 7.6 45.7 98 7.3 45.1 7.94 0.313
08:31 1015 29.97 844 24.92 7.6 45.7 98 7.3 45.1 7.95 0.313
08:32 1015 29.97 844 24.92 7.6 45.6 98 7.3 45.1 7.94 0.313
08:33 1015 29.97 844 24.92 7.6 45.7 98 7.3 45.1 7.96 0.313
08:34 1015 29.97 844 24.92 7.6 45.7 98 7.3 45.1 7.97 0.314
08:35 1015 29.97 844 24.92 7.6 45.7 98 7.3 45.1 7.94 0.313
08:36 1015 29.97 844 24.92 7.6 45.6 98 7.2 44.9 7.9 0.311
08:37 1015 29.97 844 24.92 7.5 45.6 98 7.2 44.9 7.88 0.31
08:38 1015 29.97 844 24.92 7.5 45.5 98 7.1 44.9 7.88 0.31
08:39 1015 29.97 844 24.92 7.6 45.7 98 7.3 45.1 7.91 0.311
08:40 1015 29.97 844 24.92 7.7 45.8 98 7.3 45.2 8 0.315
08:41 1015 29.97 844 24.92 7.6 45.7 97 7.2 45 7.97 0.314
08:42 1015 29.97 844 24.92 7.6 45.6 97 7.1 44.8 7.92 0.312
08:43 1015 29.97 844 24.92 7.5 45.5 97 7 44.7 7.85 0.309
08:44 1015 29.97 844 24.92 7.5 45.6 97 7.1 44.8 7.82 0.308
08:45 1015 29.97 844 24.92 7.5 45.6 97 7.1 44.9 7.85 0.309
08:46 1015 29.97 844 24.92 7.5 45.5 97 7.1 44.7 7.84 0.309
08:47 1015 29.97 844 24.92 7.5 45.5 97 7.1 44.8 7.85 0.309
08:48 1015 29.97 844 24.92 7.5 45.6 98 7.2 44.9 7.89 0.311
08:49 1015 29.97 844 24.92 7.6 45.6 97 7.1 44.8 7.9 0.311
08:50 1015 29.97 844 24.92 7.5 45.6 97 7.1 44.8 7.88 0.31
08:51 1015 29.97 844 24.92 7.5 45.5 98 7.2 44.9 7.86 0.309
08:52 1015 29.97 844 24.92 7.5 45.5 98 7.2 44.9 7.88 0.31
08:53 1015 29.97 844 24.92 7.5 45.6 98 7.2 45 7.9 0.311
08:54 1015 29.97 844 24.92 7.6 45.6 98 7.2 45 7.92 0.312
08:55 1015 29.97 844 24.92 7.6 45.7 98 7.2 45 7.93 0.312
08:56 1015 29.97 844 24.92 7.6 45.6 98 7.2 44.9 7.94 0.313
08:57 1015 29.97 844 24.92 7.6 45.6 98 7.2 44.9 7.9 0.311
08:58 1015 29.97 844 24.92 7.6 45.6 98 7.2 45 7.96 0.313
08:59 1015 29.97 844 24.92 7.6 45.8 98 7.3 45.2 8 0.315
09:00 1015 29.97 844 24.92 7.6 45.7 98 7.3 45.1 8 0.315
09:01 1015 29.97 844 24.92 7.6 45.7 97 7.2 45 7.97 0.314
09:02 1015 29.97 844 24.92 7.7 45.8 97 7.3 45.1 7.95 0.313
09:03 1015 29.97 844 24.92 7.6 45.7 97 7.2 45 7.96 0.313
09:04 1015 29.97 844 24.92 7.6 45.7 97 7.2 45 7.98 0.314
09:05 1015 29.97 844 24.92 7.7 45.8 97 7.3 45.1 7.95 0.313
09:06 1015 29.97 844 24.92 7.6 45.7 97 7.2 44.9 7.97 0.314
09:07 1015 29.97 844 24.92 7.6 45.7 97 7.2 44.9 7.94 0.313
09:08 1015 29.97 844 24.92 7.6 45.7 97 7.2 44.9 7.96 0.313
09:09 1015 29.97 844 24.92 7.6 45.7 97 7.1 44.9 7.94 0.313
09:10 1015 29.97 844 24.92 7.6 45.7 97 7.2 44.9 7.95 0.313
09:11 1015 29.97 844 24.92 7.6 45.6 97 7.1 44.9 7.97 0.314
09:12 1015 29.97 844 24.92 7.6 45.6 97 7.1 44.9 7.94 0.313
09:13 1015 29.97 844 24.92 7.6 45.6 97 7.1 44.8 7.95 0.313
09:14 1015 29.97 844 24.92 7.6 45.6 97 7.2 44.9 7.94 0.313
09:15 1015 29.97 844 24.92 7.6 45.7 97 7.2 45 7.94 0.313
09:16 1015 29.97 844 24.92 7.6 45.7 97 7.2 44.9 7.95 0.313
09:17 1015 29.97 844 24.92 7.6 45.6 97 7.1 44.8 7.9 0.311
09:18 1015 29.97 844 24.92 7.6 45.6 97 7.1 44.8 7.94 0.313
09:19 1015 29.97 844 24.92 7.6 45.7 97 7.2 44.9 7.97 0.314
09:20 1015 29.97 844 24.92 7.6 45.7 97 7.2 44.9 7.96 0.313
09:21 1015 29.97 844 24.92 7.6 45.7 97 7.2 44.9 7.96 0.313
09:22 1015 29.97 844 24.92 7.6 45.7 97 7.2 44.9 7.94 0.313
09:23 1015 29.97 844 24.92 7.6 45.7 97 7.2 44.9 7.98 0.314
09:24 1015 29.97 844 24.92 7.6 45.6 97 7.1 44.8 7.96 0.313
09:25 1015 29.97 844 24.92 7.6 45.7 97 7.1 44.8 7.92 0.312
09:26 1015 29.97 844 24.92 7.5 45.6 97 7.1 44.7 7.86 0.309
09:27 1015 29.97 844 24.92 7.5 45.6 97 7.1 44.8 7.88 0.31
09:28 1015 29.97 844 24.92 7.6 45.6 97 7.2 44.9 7.93 0.312
09:29 1015 29.97 844 24.92 7.6 45.6 97 7.1 44.8 7.96 0.313
09:30 1015 29.97 844 24.92 7.6 45.6 97 7.1 44.8 7.91 0.311
09:31 1015 29.97 844 24.92 7.6 45.6 97 7.1 44.8 7.89 0.311
09:32 1015 29.97 844 24.92 7.5 45.6 97 7.1 44.8 7.87 0.31
09:33 1015 29.97 844 24.92 7.6 45.6 97 7.1 44.9 7.9 0.311
09:34 1015 29.97 844 24.92 7.6 45.6 97 7.1 44.9 7.88 0.31
09:35 1015 29.97 844 24.92 7.6 45.6 97 7.1 44.8 7.9 0.311
09:36 1015 29.97 844 24.92 7.6 45.7 97 7.2 44.9 7.93 0.312
09:37 1015 29.97 844 24.92 7.6 45.7 97 7.2 44.9 7.93 0.312
09:38 1015 29.97 844 24.92 7.6 45.7 97 7.1 44.9 7.9 0.311
09:39 1015 29.97 844 24.92 7.6 45.6 97 7.1 44.8 7.91 0.311
09:40 1015 29.97 844 24.92 7.5 45.6 97 7 44.7 7.9 0.311
09:41 1015 29.97 844 24.92 7.6 45.6 97 7.1 44.7 7.91 0.311
09:42 1015 29.97 844 24.92 7.6 45.7 97 7.1 44.8 7.88 0.31
09:43 1015 29.97 844 24.92 7.6 45.7 97 7.1 44.8 7.92 0.312
09:44 1015 29.97 844 24.92 7.6 45.7 97 7.1 44.8 7.95 0.313
09:45 1015 29.97 844 24.92 7.6 45.8 97 7.2 44.9 7.99 0.315
09:46 1015 29.97 844 24.92 7.7 45.8 97 7.2 44.9 8.03 0.316
09:47 1015 29.97 844 24.92 7.7 45.8 97 7.2 44.9 8.01 0.315
09:48 1015 29.97 844 24.92 7.7 45.8 97 7.2 44.9 8 0.315
09:49 1015 29.97 844 24.92 7.7 45.9 97 7.2 44.9 8 0.315
09:50 1015 29.97 844 24.92 7.7 45.9 96 7.2 44.9 8.01 0.315
09:51 1015 29.97 844 24.92 7.7 45.9 97 7.2 45 8.01 0.315
09:52 1015 29.97 844 24.92 7.8 46 97 7.2 45 8.05 0.317
09:53 1015 29.97 844 24.92 7.7 45.9 96 7.2 44.9 8.03 0.316
09:54 1015 29.97 844 24.92 7.8 46 96 7.2 44.9 8.03 0.316
09:55 1015 29.97 844 24.92 7.8 46 96 7.1 44.8 8.02 0.316
09:56 1015 29.97 844 24.92 7.7 45.9 96 7 44.7 8.02 0.316
09:57 1015 29.97 844 24.92 7.7 45.9 96 7.1 44.7 7.96 0.313
09:58 1015 29.97 844 24.92 7.7 45.9 96 7.1 44.7 7.96 0.313
09:59 1015 29.97 844 24.92 7.7 45.8 96 7.1 44.8 7.99 0.315
10:00 1015 29.97 844 24.92 7.7 45.9 96 7.1 44.8 8 0.315
10:01 1015 29.97 844 24.92 7.7 45.8 96 7.1 44.8 8.01 0.315
10:02 1015 29.97 844 24.92 7.7 45.8 96 7.1 44.7 8.01 0.315
10:03 1015 29.97 844 24.92 7.7 45.8 96 7.1 44.7 7.98 0.314
10:04 1015 29.97 844 24.92 7.7 45.8 96 7.1 44.8 7.98 0.314
10:05 1015 29.97 844 24.92 7.7 45.9 97 7.2 45 8 0.315
10:06 1015 29.97 844 24.92 7.7 45.8 97 7.2 45 8.03 0.316
10:07 1015 29.97 844 24.92 7.7 45.9 97 7.2 45 8.08 0.318
10:08 1015 29.97 844 24.92 7.7 45.9 96 7.2 44.9 8.06 0.317
10:09 1015 29.97 844 24.92 7.7 45.9 96 7.1 44.8 8.07 0.318
10:10 1015 29.97 844 24.92 7.7 45.9 96 7.2 44.9 8.08 0.318
10:11 1015 29.97 844 24.92 7.7 45.9 96 7.1 44.9 8.08 0.318
10:12 1015 29.97 844 24.92 7.8 46 96 7.2 44.9 8.11 0.319
10:13 1015 29.97 844 24.92 7.8 46.1 96 7.2 45 8.12 0.32
10:14 1015 29.97 844 24.92 7.8 46.1 96 7.2 45 8.14 0.32
10:15 1015 29.97 844 24.92 7.9 46.2 97 7.4 45.3 8.16 0.321
10:16 1015 29.97 844 24.92 8 46.3 97 7.4 45.4 8.25 0.325
10:17 1015 29.97 844 24.92 8 46.4 96 7.5 45.4 8.3 0.327
10:18 1015 29.97 844 24.92 8.1 46.5 96 7.5 45.4 8.3 0.327
10:19 1015 29.97 844 24.92 8.1 46.5 96 7.5 45.6 8.38 0.33
10:20 1015 29.97 844 24.92 8.2 46.7 96 7.5 45.6 8.5 0.335
10:21 1015 29.97 844 24.92 8.2 46.8 96 7.6 45.7 8.47 0.333
10:22 1015 29.97 844 24.92 8.3 46.9 96 7.6 45.7 8.55 0.337
10:23 1015 29.97 844 24.92 8.3 47 96 7.7 45.8 8.59 0.338
10:24 1015 29.97 844 24.92 8.4 47 96 7.7 45.9 8.64 0.34
10:25 1015 29.97 844 24.92 8.4 47.1 96 7.7 45.9 8.64 0.34
10:26 1015 29.97 844 24.92 8.4 47.1 96 7.7 45.9 8.72 0.343
10:27 1015 29.97 844 24.92 8.5 47.2 95 7.8 46 8.76 0.345
10:28 1015 29.97 844 24.92 8.5 47.2 95 7.8 46 8.75 0.344
10:29 1015 29.97 844 24.92 8.4 47.2 94 7.5 45.5 8.67 0.341
10:30 1015 29.97 844 24.92 8.4 47.2 94 7.4 45.4 8.61 0.339
10:31 1015 29.97 844 24.92 8.3 47 93 7.3 45.2 8.53 0.336
10:32 1015 29.97 844 24.92 8.3 46.9 94 7.3 45.2 8.51 0.335
10:33 1015 29.97 844 24.92 8.2 46.8 94 7.3 45.1 8.5 0.335
10:34 1015 29.97 844 24.92 8.3 46.9 94 7.4 45.3 8.5 0.335
10:35 1015 29.97 844 24.92 8.3 46.9 94 7.4 45.4 8.46 0.333
10:36 1015 29.97 844 24.92 8.2 46.8 94 7.3 45.1 8.51 0.335
10:37 1015 29.97 844 24.92 8.2 46.7 94 7.3 45.2 8.43 0.332
10:38 1015 29.97 844 24.92 8.2 46.8 94 7.3 45.2 8.47 0.333
10:39 1015 29.97 844 24.92 8.2 46.7 94 7.3 45.1 8.46 0.333
10:40 1015 29.97 844 24.92 8.1 46.6 94 7.1 44.8 8.36 0.329
10:41 1015 29.97 844 24.92 8.1 46.6 94 7.2 45 8.34 0.328
10:42 1015 29.97 844 24.92 8.1 46.5 93 7.1 44.7 8.3 0.327
10:43 1015 29.97 844 24.92 8.1 46.5 94 7.1 44.8 8.29 0.326
10:44 1015 29.97 844 24.92 8 46.4 93 7 44.6 8.26 0.325
10:45 1015 29.97 844 24.92 8 46.5 94 7.1 44.8 8.27 0.326
10:46 1015 29.97 844 24.92 8.1 46.5 94 7.2 45 8.3 0.327
10:47 1015 29.97 844 24.92 8 46.5 94 7.2 45 8.36 0.329
10:48 1015 29.97 844 24.92 8 46.5 94 7.1 44.8 8.3 0.327
10:49 1015 29.97 844 24.92 8 46.4 94 7.1 44.7 8.28 0.326
10:50 1015 29.97 844 24.92 8 46.4 94 7.1 44.8 8.3 0.327
10:51 1015 29.97 844 24.92 7.9 46.3 94 7 44.5 8.27 0.326
10:52 1015 29.97 844 24.92 8 46.4 93 7 44.5 8.2 0.323
10:53 1015 29.97 844 24.92 8 46.3 94 7 44.6 8.22 0.324
10:54 1015 29.97 844 24.92 7.9 46.3 94 7.1 44.7 8.23 0.324
10:55 1015 29.97 844 24.92 8 46.4 95 7.2 44.9 8.3 0.327
10:56 1015 29.97 844 24.92 8 46.4 95 7.2 45 8.28 0.326
10:57 1015 29.97 844 24.92 8 46.3 95 7.2 45 8.29 0.326
10:58 1015 29.97 844 24.92 8 46.4 94 7.2 44.9 8.28 0.326
10:59 1015 29.97 844 24.92 8 46.3 94 7.1 44.8 8.29 0.326
11:00 1015 29.97 844 24.92 8 46.4 95 7.2 44.9 8.31 0.327
11:01 1015 29.97 844 24.92 8 46.4 95 7.2 44.9 8.31 0.327
11:02 1015 29.97 844 24.92 8 46.3 94 7 44.7 8.24 0.324
11:03 1015 29.97 844 24.92 7.9 46.3 94 7.1 44.7 8.28 0.326
11:04 1015 29.97 844 24.92 8 46.3 94 7 44.7 8.29 0.326
11:05 1015 29.97 844 24.92 7.9 46.3 94 7 44.7 8.29 0.326
11:06 1015 29.97 844 24.92 7.9 46.3 93 6.9 44.5 8.23 0.324
11:07 1015 29.97 844 24.92 7.9 46.3 93 6.9 44.4 8.23 0.324
11:08 1015 29.97 844 24.92 7.9 46.3 93 6.9 44.5 8.25 0.325
11:09 1015 29.97 844 24.92 7.9 46.3 93 6.9 44.4 8.22 0.324
11:10 1015 29.97 844 24.92 7.9 46.3 94 7 44.6 8.22 0.324
11:11 1015 29.97 844 24.92 7.9 46.3 94 7 44.6 8.25 0.325
11:12 1015 29.97 844 24.92 8 46.3 94 7.1 44.7 8.25 0.325
11:13 1015 29.97 844 24.92 7.9 46.3 94 7.1 44.7 8.24 0.324
11:14 1015 29.97 844 24.92 8 46.3 95 7.2 44.9 8.26 0.325
11:15 1015 29.97 844 24.92 8 46.3 95 7.2 45 8.32 0.328
11:16 1015 29.97 844 24.92 7.9 46.3 95 7.2 44.9 8.29 0.326
11:17 1015 29.97 844 24.92 7.9 46.3 94 7.1 44.7 8.27 0.326
11:18 1015 29.97 844 24.92 7.9 46.3 94 7.1 44.7 8.23 0.324
11:19 1015 29.97 844 24.92 7.9 46.3 95 7.2 44.9 8.26 0.325
11:20 1015 29.97 844 24.92 8 46.4 95 7.2 45 8.29 0.326
11:21 1015 29.97 844 24.92 8 46.5 95 7.3 45.1 8.38 0.33
11:22 1015 29.97 844 24.92 8 46.5 94 7.1 44.8 8.38 0.33
11:23 1015 29.97 844 24.92 8.1 46.5 93 7 44.6 8.38 0.33
11:24 1015 29.97 844 24.92 8.1 46.6 94 7.2 44.9 8.44 0.332
11:25 1015 29.97 844 24.92 8.2 46.7 93 7 44.6 8.41 0.331
11:26 1015 29.97 844 24.92 8.1 46.6 93 7 44.6 8.39 0.33
11:27 1015 29.97 844 24.92 8.2 46.7 93 7.2 44.9 8.47 0.333
11:28 1015 29.97 844 24.92 8.2 46.8 93 7.1 44.8 8.5 0.335
11:29 1015 29.97 844 24.92 8.1 46.7 92 6.9 44.4 8.42 0.331
11:30 1015 29.97 844 24.92 8.1 46.6 93 7.1 44.7 8.41 0.331
11:31 1015 29.97 844 24.92 8.2 46.7 93 7.1 44.8 8.45 0.333
11:32 1015 29.97 844 24.92 8.2 46.7 93 7.1 44.7 8.45 0.333
11:33 1015 29.97 844 24.92 8.1 46.7 93 7.1 44.7 8.42 0.331
11:34 1015 29.97 844 24.92 8.2 46.7 94 7.2 44.9 8.43 0.332
11:35 1015 29.97 844 24.92 8.1 46.7 92 6.9 44.4 8.43 0.332
11:36 1015 29.97 844 24.92 8.1 46.6 92 6.9 44.4 8.36 0.329
11:37 1015 29.97 844 24.92 8.1 46.5 92 6.8 44.3 8.37 0.33
11:38 1015 29.97 844 24.92 8 46.5 92 6.7 44.1 8.3 0.327
11:39 1015 29.97 844 24.92 8 46.5 91 6.7 44 8.29 0.326
11:40 1015 29.97 845 24.95 8 46.4 92 6.8 44.2 8.29 0.326
11:41 1015 29.97 845 24.95 8 46.4 92 6.7 44.1 8.27 0.326
11:42 1015 29.97 845 24.95 8 46.4 92 6.7 44.1 8.28 0.326
11:43 1015 29.97 845 24.95 8 46.3 93 6.9 44.3 8.25 0.325
11:44 1015 29.97 844 24.92 8 46.3 94 7 44.6 8.28 0.326
11:45 1015 29.97 844 24.92 8 46.4 94 7 44.7 8.31 0.327
11:46 1015 29.97 844 24.92 8 46.4 94 7.1 44.7 8.31 0.327
11:47 1015 29.97 844 24.92 8 46.4 92 6.8 44.3 8.28 0.326
11:48 1015 29.97 845 24.95 8 46.3 93 7 44.5 8.31 0.327
11:49 1015 29.97 845 24.95 8 46.4 92 6.8 44.2 8.32 0.328
11:50 1015 29.97 845 24.95 8 46.4 90 6.5 43.8 8.21 0.323
11:51 1015 29.97 845 24.95 8 46.4 91 6.6 43.9 8.2 0.323
11:52 1015 29.97 844 24.92 8 46.4 92 6.8 44.2 8.22 0.324
11:53 1015 29.97 844 24.92 8 46.4 92 6.7 44.1 8.29 0.326
11:54 1015 29.97 844 24.92 8 46.5 91 6.7 44.1 8.36 0.329
11:55 1015 29.97 844 24.92 8.1 46.5 92 6.8 44.2 8.34 0.328
11:56 1015 29.97 844 24.92 8.1 46.5 92 6.9 44.4 8.38 0.33
11:57 1015 29.97 844 24.92 8.1 46.6 92 7 44.5 8.37 0.33
11:58 1015 29.97 844 24.92 8.2 46.7 91 6.8 44.3 8.46 0.333
11:59 1015 29.97 844 24.92 8.2 46.7 91 6.8 44.2 8.47 0.333
12:00 1015 29.97 844 24.92 8.2 46.8 93 7.2 44.9 8.52 0.335
12:01 1015 29.97 845 24.95 8.3 46.9 91 6.9 44.5 8.61 0.339
12:02 1015 29.97 844 24.92 8.3 46.9 91 6.9 44.4 8.58 0.338
12:03 1015 29.97 845 24.95 8.3 46.9 91 6.9 44.3 8.58 0.338
12:04 1015 29.97 844 24.92 8.3 46.9 92 7 44.6 8.63 0.34
12:05 1015 29.97 844 24.92 8.4 47.1 93 7.3 45.2 8.68 0.342
12:06 1015 29.97 844 24.92 8.4 47.2 92 7.2 45 8.74 0.344
12:07 1015 29.97 844 24.92 8.5 47.4 94 7.6 45.7 8.87 0.349
12:08 1015 29.97 844 24.92 8.7 47.6 93 7.6 45.7 8.98 0.354
12:09 1015 29.97 844 24.92 8.7 47.7 93 7.7 45.8 9.03 0.356
12:10 1015 29.97 844 24.92 8.9 47.9 92 7.7 45.8 9.14 0.36
12:11 1015 29.97 844 24.92 9 48.2 94 8.1 46.5 9.23 0.363
12:12 1015 29.97 844 24.92 9.2 48.5 92 7.9 46.2 9.52 0.375
12:13 1015 29.97 844 24.92 9.2 48.6 93 8.2 46.8 9.5 0.374
12:14 1015 29.97 844 24.92 9.3 48.7 91 7.9 46.2 9.54 0.376
12:15 1015 29.97 844 24.92 9.3 48.8 90 7.8 46.1 9.53 0.375
12:16 1015 29.97 844 24.92 9.3 48.8 92 8.1 46.6 9.56 0.376
12:17 1015 29.97 844 24.92 9.4 49 93 8.3 46.9 9.67 0.381
12:18 1015 29.97 844 24.92 9.4 49 88 7.5 45.6 9.64 0.38
12:19 1015 29.97 844 24.92 9.4 48.9 87 7.3 45.2 9.49 0.374
12:20 1015 29.97 844 24.92 9.3 48.7 88 7.3 45.1 9.39 0.37
12:21 1015 29.97 844 24.92 9.3 48.7 90 7.8 46 9.43 0.371
12:22 1015 29.97 844 24.92 9.3 48.8 90 7.8 46.1 9.56 0.376
12:23 1015 29.97 844 24.92 9.3 48.8 88 7.5 45.4 9.53 0.375
12:24 1015 29.97 844 24.92 9.3 48.7 86 7 44.7 9.43 0.371
12:25 1015 29.97 844 24.92 9.3 48.7 87 7.2 45 9.44 0.372
12:26 1015 29.97 844 24.92 9.3 48.8 84 6.8 44.2 9.46 0.372
12:27 1015 29.97 844 24.92 9.3 48.8 90 7.7 45.9 9.49 0.374
12:28 1015 29.97 844 24.92 9.5 49 88 7.6 45.7 9.62 0.379
12:29 1015 29.97 844 24.92 9.5 49.1 89 7.8 46 9.69 0.381
12:30 1015 29.97 844 24.92 9.6 49.2 89 7.9 46.2 9.71 0.382
12:31 1015 29.97 844 24.92 9.6 49.4 87 7.6 45.6 9.79 0.385
12:32 1015 29.97 844 24.92 9.7 49.4 87 7.6 45.7 9.84 0.387
12:33 1015 29.97 844 24.92 9.7 49.4 83 7 44.6 9.84 0.387
12:34 1015 29.97 844 24.92 9.7 49.5 89 8 46.5 9.83 0.387
12:35 1015 29.97 844 24.92 9.9 49.7 87 7.8 46.1 10.04 0.395
12:36 1015 29.97 844 24.92 10 50 90 8.5 47.2 10.18 0.401
12:37 1015 29.97 844 24.92 10.1 50.2 82 7.1 44.8 10.26 0.404
12:38 1015 29.97 844 24.92 10.1 50.1 87 8 46.4 10.22 0.402
12:39 1015 29.97 844 24.92 10 50.1 83 7.3 45.2 10.21 0.402
12:40 1015 29.97 844 24.92 10 50.1 82 7.1 44.7 10.18 0.401
12:41 1015 29.97 844 24.92 10 50 86 7.8 46 10.15 0.4
12:42 1015 29.97 844 24.92 10.1 50.2 83 7.3 45.1 10.2 0.402
12:43 1015 29.97 844 24.92 10 50 86 7.8 46 10.17 0.4
12:44 1015 29.97 844 24.92 10.1 50.1 83 7.4 45.2 10.27 0.404
12:45 1015 29.97 844 24.92 10 50.1 85 7.6 45.7 10.27 0.404
12:46 1015 29.97 844 24.92 10 50 83 7.2 45 10.23 0.403
12:47 1015 29.97 844 24.92 9.9 49.9 82 7.1 44.8 10.16 0.4
12:48 1015 29.97 844 24.92 10 49.9 84 7.4 45.3 10.19 0.401
12:49 1015 29.97 844 24.92 10 50 83 7.3 45.1 10.2 0.402
12:50 1015 29.97 844 24.92 10 50 81 6.9 44.3 10.18 0.401
12:51 1015 29.97 844 24.92 10 49.9 81 6.9 44.4 10.13 0.399
12:52 1015 29.97 844 24.92 9.8 49.7 77 6 42.8 9.99 0.393
12:53 1015 29.97 844 24.92 9.7 49.5 80 6.4 43.5 9.96 0.392
12:54 1015 29.97 844 24.92 9.6 49.4 83 6.8 44.3 9.91 0.39
12:55 1015 29.97 844 24.92 9.6 49.3 85 7.3 45.1 9.93 0.391
12:56 1015 29.97 844 24.92 9.7 49.5 84 7.2 44.9 9.96 0.392
12:57 1015 29.97 844 24.92 9.7 49.4 85 7.2 45 9.96 0.392
12:58 1015 29.97 844 24.92 9.7 49.4 83 6.9 44.5 9.86 0.388
12:59 1015 29.97 844 24.92 9.6 49.3 83 6.9 44.5 9.85 0.388
13:00 1015 29.97 844 24.92 9.6 49.3 83 6.9 44.3 9.75 0.384
13:01 1015 29.97 844 24.92 9.6 49.2 82 6.7 44.1 9.71 0.382
13:02 1015 29.97 844 24.92 9.5 49.1 86 7.2 45 9.67 0.381
13:03 1015 29.97 844 24.92 9.5 49.1 86 7.3 45.1 9.76 0.384
13:04 1015 29.97 844 24.92 9.5 49 86 7.2 45 9.74 0.383
13:05 1015 29.97 844 24.92 9.4 49 85 7.1 44.7 9.71 0.382
13:06 1015 29.97 844 24.92 9.4 48.9 85 7.1 44.7 9.58 0.377
13:07 1015 29.97 844 24.92 9.4 48.9 86 7.2 45 9.65 0.38
13:08 1015 29.97 844 24.92 9.5 49 84 7 44.6 9.77 0.385
13:09 1015 29.97 844 24.92 9.5 49.1 84 7 44.6 9.73 0.383
13:10 1015 29.97 844 24.92 9.6 49.2 86 7.4 45.3 9.77 0.385
13:11 1015 29.97 844 24.92 9.6 49.2 86 7.4 45.3 9.81 0.386
13:12 1015 29.97 844 24.92 9.6 49.3 84 7 44.7 9.87 0.389
13:13 1015 29.97 844 24.92 9.6 49.3 83 6.9 44.5 9.85 0.388
13:14 1015 29.97 844 24.92 9.6 49.2 85 7.1 44.8 9.82 0.387
13:15 1015 29.97 844 24.92 9.5 49.2 83 6.8 44.3 9.8 0.386
13:16 1015 29.97 844 24.92 9.5 49.2 82 6.7 44 9.8 0.386
13:17 1015 29.97 844 24.92 9.5 49.2 83 6.8 44.2 9.77 0.385
13:18 1015 29.97 844 24.92 9.6 49.3 84 7.1 44.8 9.82 0.387
13:19 1015 29.97 844 24.92 9.6 49.3 86 7.3 45.2 9.81 0.386
13:20 1015 29.97 844 24.92 9.6 49.3 84 7 44.7 9.89 0.389
13:21 1015 29.97 844 24.92 9.6 49.3 84 7 44.6 9.84 0.387
13:22 1015 29.97 844 24.92 9.7 49.4 85 7.2 44.9 9.86 0.388
13:23 1015 29.97 844 24.92 9.7 49.4 85 7.4 45.2 9.89 0.389
13:24 1015 29.97 844 24.92 9.8 49.6 84 7.3 45.1 9.95 0.392
13:25 1015 29.97 844 24.92 9.8 49.6 84 7.2 44.9 9.98 0.393
13:26 1015 29.97 844 24.92 9.8 49.6 84 7.3 45.1 10.04 0.395
13:27 1015 29.97 844 24.92 9.9 49.8 85 7.4 45.4 10.05 0.396
13:28 1015 29.97 844 24.92 9.9 49.8 82 7 44.6 10.04 0.395
13:29 1015 29.97 844 24.92 9.9 49.7 87 7.8 46.1 10.15 0.4
13:30 1015 29.97 844 24.92 9.9 49.9 87 7.9 46.2 10.21 0.402
13:31 1015 29.97 844 24.92 10 50 85 7.6 45.6 10.26 0.404
13:32 1015 29.97 844 24.92 10 50 84 7.4 45.4 10.25 0.404
13:33 1015 29.97 844 24.92 10 50 83 7.3 45.2 10.2 0.402
13:34 1015 29.97 844 24.92 10 49.9 84 7.4 45.2 10.15 0.4
13:35 1015 29.97 844 24.92 9.9 49.9 85 7.5 45.5 10.14 0.399
13:36 1015 29.97 844 24.92 9.9 49.8 86 7.6 45.7 10.1 0.398
13:37 1015 29.97 844 24.92 9.8 49.7 85 7.4 45.3 10.06 0.396
13:38 1015 29.97 844 24.92 9.8 49.7 83 7.1 44.8 10.07 0.396
13:39 1015 29.97 844 24.92 9.8 49.7 86 7.5 45.5 10.06 0.396
13:40 1015 29.97 844 24.92 9.8 49.7 84 7.3 45.2 10.07 0.396
13:41 1015 29.97 844 24.92 9.8 49.6 86 7.5 45.5 10.03 0.395
13:42 1015 29.97 844 24.92 9.8 49.7 85 7.5 45.4 10.08 0.397
13:43 1015 29.97 844 24.92 9.8 49.7 80 6.6 43.9 10.07 0.396
13:44 1015 29.97 844 24.92 9.8 49.7 83 7.2 44.9 10.03 0.395
13:45 1015 29.97 844 24.92 9.8 49.7 84 7.3 45.2 10.09 0.397
13:46 1015 29.97 844 24.92 9.9 49.7 86 7.6 45.6 10.13 0.399
13:47 1015 29.97 844 24.92 9.9 49.7 84 7.2 45 10.13 0.399
13:48 1015 29.97 844 24.92 9.9 49.8 85 7.4 45.4 10.18 0.401
13:49 1015 29.97 844 24.92 10 49.9 86 7.8 46 10.27 0.404
13:50 1015 29.97 844 24.92 10.1 50.1 85 7.7 45.8 10.38 0.409
13:51 1015 29.97 844 24.92 10.1 50.2 81 7.1 44.8 10.39 0.409
13:52 1015 29.97 845 24.95 10.2 50.3 84 7.5 45.5 10.47 0.412
13:53 1015 29.97 845 24.95 10.3 50.5 86 8 46.4 10.55 0.415
13:54 1015 29.97 845 24.95 10.4 50.7 84 7.8 46.1 10.67 0.42
13:55 1015 29.97 845 24.95 10.5 50.8 79 7 44.5 10.7 0.421
13:56 1015 29.97 845 24.95 10.4 50.8 81 7.4 45.3 10.63 0.419
13:57 1015 29.97 845 24.95 10.4 50.8 82 7.5 45.6 10.63 0.419
13:58 1015 29.97 845 24.95 10.5 50.8 85 8.1 46.6 10.71 0.422
13:59 1015 29.97 845 24.95 10.6 51 86 8.3 46.9 10.84 0.427
14:00 1015 29.97 845 24.95 10.8 51.4 80 7.5 45.5 11.1 0.437
14:01 1015 29.97 845 24.95 11.1 51.9 88 9.2 48.5 11.31 0.445
14:02 1015 29.97 845 24.95 11.4 52.4 85 8.9 48.1 11.67 0.459
14:03 1015 29.97 845 24.95 11.5 52.8 82 8.6 47.5 11.77 0.463
14:04 1015 29.97 845 24.95 11.6 52.8 77 7.8 46 11.77 0.463
14:05 1015 29.97 845 24.95 11.4 52.4 76 7.3 45.2 11.45 0.451
14:06 1015 29.97 845 24.95 11.2 52.1 77 7.3 45.1 11.31 0.445
14:07 1015 29.97 845 24.95 11.1 52 82 8.1 46.6 11.22 0.442
14:08 1015 29.97 845 24.95 11.2 52.1 78 7.4 45.4 11.25 0.443
14:09 1015 29.97 845 24.95 11.1 51.9 77 7.2 44.9 11.21 0.441
14:10 1015 29.97 845 24.95 10.9 51.6 78 7.2 45 11.08 0.436
14:11 1015 29.97 845 24.95 10.8 51.4 76 6.8 44.2 10.92 0.43
14:12 1015 29.97 845 24.95 10.6 51.1 79 7.1 44.8 10.74 0.423
14:13 1015 29.97 845 24.95 10.5 50.9 79 7 44.6 10.7 0.421
14:14 1015 29.97 845 24.95 10.4 50.8 82 7.5 45.5 10.67 0.42
14:15 1015 29.97 845 24.95 10.4 50.8 80 7.1 44.8 10.64 0.419
14:16 1016 30 845 24.95 10.3 50.6 82 7.4 45.2 10.52 0.414
14:17 1015 29.97 845 24.95 10.2 50.3 81 7.1 44.9 10.48 0.413
14:18 1015 29.97 845 24.95 10.1 50.2 82 7.2 45 10.43 0.411
14:19 1016 30 845 24.95 10.1 50.1 84 7.5 45.5 10.4 0.409
14:20 1016 30 845 24.95 10 50 82 7 44.6 10.37 0.408
14:21 1016 30 845 24.95 10 50 81 7 44.6 10.35 0.407
14:22 1016 30 845 24.95 10 50 82 7 44.6 10.3 0.406
14:23 1016 30 845 24.95 10 49.9 83 7.3 45.1 10.3 0.406
14:24 1016 30 845 24.95 10 49.9 82 7.1 44.7 10.31 0.406
14:25 1016 30 845 24.95 9.9 49.9 84 7.3 45.2 10.26 0.404
14:26 1016 30 845 24.95 10 49.9 85 7.6 45.6 10.23 0.403
14:27 1016 30 845 24.95 10 49.9 85 7.5 45.5 10.31 0.406
14:28 1016 30 845 24.95 9.9 49.9 82 7.1 44.7 10.32 0.406
14:29 1016 30 845 24.95 9.9 49.8 82 6.9 44.4 10.19 0.401
14:30 1016 30 845 24.95 9.8 49.7 83 7.2 44.9 10.17 0.4
14:31 1016 30 845 24.95 9.8 49.6 85 7.3 45.2 10.19 0.401
14:32 1016 30 845 24.95 9.7 49.4 84 7.1 44.8 10.06 0.396
14:33 1016 30 845 24.95 9.6 49.2 86 7.3 45.1 9.95 0.392
14:34 1016 30 845 24.95 9.4 49 87 7.4 45.3 9.87 0.389
14:35 1016 30 845 24.95 9.4 48.8 87 7.4 45.3 9.81 0.386
14:36 1016 30 845 24.95 9.3 48.7 88 7.3 45.2 9.7 0.382
14:37 1016 30 845 24.95 9.3 48.7 87 7.2 44.9 9.7 0.382
14:38 1016 30 845 24.95 9.2 48.6 89 7.5 45.4 9.64 0.38
14:39 1016 30 845 24.95 9.3 48.7 89 7.6 45.7 9.72 0.383
14:40 1016 30 845 24.95 9.3 48.7 87 7.2 45 9.71 0.382
14:41 1016 30 845 24.95 9.3 48.7 87 7.2 45 9.69 0.381
14:42 1016 30 845 24.95 9.3 48.8 86 7.1 44.7 9.69 0.381
14:43 1016 30 845 24.95 9.4 48.9 89 7.7 45.8 9.78 0.385
14:44 1016 30 845 24.95 9.5 49.2 88 7.7 45.8 9.98 0.393
14:45 1016 30 845 24.95 9.7 49.4 87 7.6 45.7 10.11 0.398
14:46 1015 29.97 845 24.95 9.8 49.6 86 7.6 45.6 10.21 0.402
14:47 1016 30 845 24.95 9.9 49.9 87 7.8 46.1 10.25 0.404
14:48 1016 30 845 24.95 10 50 85 7.6 45.6 10.38 0.409
14:49 1016 30 845 24.95 10 50.1 82 7.2 44.9 10.35 0.407
14:50 1016 30 845 24.95 10 50 84 7.5 45.4 10.33 0.407
14:51 1016 30 845 24.95 10 49.9 84 7.4 45.3 10.32 0.406
14:52 1016 30 845 24.95 9.9 49.9 83 7.3 45.1 10.3 0.406
14:53 1016 30 845 24.95 9.9 49.9 85 7.5 45.6 10.24 0.403
14:54 1016 30 845 24.95 10 49.9 83 7.3 45.1 10.29 0.405
14:55 1016 30 845 24.95 10 49.9 82 7.1 44.7 10.33 0.407
14:56 1016 30 845 24.95 10 50 80 6.7 44 10.31 0.406
14:57 1016 30 845 24.95 10 49.9 80 6.8 44.2 10.29 0.405
14:58 1016 30 845 24.95 10 49.9 82 7 44.6 10.33 0.407
14:59 1016 30 845 24.95 10 49.9 81 6.9 44.4 10.36 0.408
15:00 1016 30 845 24.95 9.9 49.9 78 6.3 43.4 10.31 0.406
15:01 1016 30 845 24.95 9.9 49.9 79 6.4 43.6 10.27 0.404
15:02 1016 30 845 24.95 9.9 49.9 83 7.1 44.8 10.31 0.406
15:03 1016 30 845 24.95 9.9 49.9 81 6.8 44.3 10.28 0.405
15:04 1016 30 845 24.95 9.9 49.9 82 7 44.6 10.31 0.406
15:05 1016 30 845 24.95 9.9 49.8 79 6.4 43.5 10.25 0.404
15:06 1016 30 845 24.95 9.9 49.9 79 6.6 43.8 10.25 0.404
15:07 1016 30 845 24.95 9.9 49.9 80 6.7 44.1 10.29 0.405
15:08 1016 30 845 24.95 10 49.9 84 7.5 45.4 10.36 0.408
15:09 1016 30 845 24.95 10 50.1 83 7.3 45.1 10.42 0.41
15:10 1016 30 845 24.95 10.1 50.1 82 7.2 44.9 10.39 0.409
15:11 1016 30 845 24.95 10.1 50.1 82 7.1 44.8 10.41 0.41
15:12 1016 30 845 24.95 10 50 82 7.1 44.8 10.37 0.408
15:13 1016 30 845 24.95 10 50 82 7.1 44.8 10.32 0.406
15:14 1016 30 845 24.95 10.1 50.1 83 7.3 45.1 10.41 0.41
15:15 1016 30 845 24.95 10.2 50.3 84 7.5 45.5 10.53 0.415
15:16 1016 30 845 24.95 10.2 50.4 81 7.2 44.9 10.62 0.418
15:17 1016 30 845 24.95 10.3 50.5 81 7.2 45 10.59 0.417
15:18 1016 30 845 24.95 10.2 50.4 82 7.4 45.3 10.51 0.414
15:19 1016 30 845 24.95 10.2 50.3 83 7.5 45.5 10.54 0.415
15:20 1016 30 845 24.95 10.2 50.4 83 7.4 45.4 10.57 0.416
15:21 1016 30 845 24.95 10.2 50.4 82 7.3 45.2 10.52 0.414
15:22 1016 30 845 24.95 10.2 50.4 82 7.3 45.1 10.54 0.415
15:23 1016 30 845 24.95 10.2 50.4 80 6.9 44.5 10.54 0.415
15:24 1016 30 845 24.95 10.2 50.4 81 7.2 44.9 10.53 0.415
15:25 1016 30 845 24.95 10.2 50.3 81 7 44.7 10.53 0.415
15:26 1016 30 845 24.95 10.1 50.3 79 6.7 44.1 10.48 0.413
15:27 1016 30 845 24.95 10.1 50.2 80 6.9 44.4 10.46 0.412
15:28 1016 30 845 24.95 10.2 50.3 81 7 44.6 10.47 0.412
15:29 1016 30 845 24.95 10.2 50.3 80 6.9 44.4 10.46 0.412
15:30 1016 30 845 24.95 10.2 50.3 81 7 44.6 10.49 0.413
15:31 1016 30 845 24.95 10.1 50.3 81 7 44.6 10.48 0.413
15:32 1016 30 845 24.95 10.2 50.3 81 7 44.6 10.5 0.413
15:33 1016 30 845 24.95 10.2 50.3 79 6.7 44 10.48 0.413
15:34 1016 30 845 24.95 10.1 50.2 78 6.5 43.7 10.42 0.41
15:35 1016 30 845 24.95 10.1 50.1 77 6.2 43.2 10.37 0.408
15:36 1016 30 845 24.95 10.1 50.2 80 6.9 44.3 10.41 0.41
15:37 1016 30 845 24.95 10.2 50.3 78 6.5 43.6 10.53 0.415
15:38 1016 30 845 24.95 10.3 50.5 79 6.9 44.4 10.59 0.417
15:39 1016 30 845 24.95 10.4 50.7 80 7.1 44.9 10.77 0.424
15:40 1016 30 845 24.95 10.5 50.9 80 7.3 45.2 10.86 0.428
15:41 1016 30 845 24.95 10.5 50.9 77 6.6 44 10.84 0.427
15:42 1016 30 845 24.95 10.5 50.8 76 6.5 43.7 10.76 0.424
15:43 1016 30 845 24.95 10.4 50.6 76 6.3 43.4 10.66 0.42
15:44 1016 30 845 24.95 10.3 50.5 78 6.6 43.9 10.59 0.417
15:45 1016 30 845 24.95 10.3 50.5 79 6.8 44.2 10.59 0.417
15:46 1016 30 845 24.95 10.3 50.5 79 6.7 44.1 10.62 0.418
15:47 1016 30 845 24.95 10.3 50.5 77 6.4 43.5 10.65 0.419
15:48 1016 30 845 24.95 10.3 50.5 80 7 44.5 10.59 0.417
15:49 1016 30 845 24.95 10.2 50.4 78 6.5 43.8 10.6 0.417
15:50 1016 30 845 24.95 10.2 50.4 79 6.8 44.2 10.53 0.415
15:51 1016 30 845 24.95 10.1 50.3 78 6.4 43.5 10.51 0.414
15:52 1016 30 845 24.95 10.1 50.1 79 6.7 44 10.45 0.411
15:53 1016 30 845 24.95 10 50 78 6.5 43.6 10.37 0.408
15:54 1016 30 845 24.95 10 49.9 79 6.5 43.7 10.33 0.407
15:55 1016 30 845 24.95 9.9 49.9 79 6.5 43.8 10.33 0.407
15:56 1016 30 845 24.95 9.9 49.8 78 6.3 43.4 10.25 0.404
15:57 1016 30 845 24.95 9.9 49.7 83 7 44.7 10.21 0.402
15:58 1016 30 845 24.95 9.8 49.6 81 6.7 44 10.19 0.401
15:59 1016 30 845 24.95 9.7 49.5 81 6.6 43.9 10.13 0.399
16:00 1016 30 845 24.95 9.7 49.4 83 7 44.5 10.05 0.396
16:01 1016 30 845 24.95 9.6 49.3 81 6.5 43.6 10.02 0.394
16:02 1016 30 845 24.95 9.6 49.2 83 6.9 44.4 9.96 0.392
16:03 1016 30 845 24.95 9.6 49.2 86 7.3 45.2 10.02 0.394
16:04 1016 30 845 24.95 9.6 49.2 83 6.9 44.4 10.04 0.395
16:05 1016 30 845 24.95 9.6 49.2 83 6.9 44.4 10.04 0.395
16:06 1016 30 845 24.95 9.6 49.4 86 7.4 45.3 10.11 0.398
16:07 1016 30 845 24.95 9.7 49.4 85 7.2 45 10.12 0.398
16:08 1016 30 845 24.95 9.7 49.4 85 7.3 45.2 10.17 0.4
16:09 1016 30 845 24.95 9.7 49.5 86 7.5 45.5 10.14 0.399
16:10 1016 30 845 24.95 9.7 49.5 83 7 44.6 10.16 0.4
16:11 1016 30 845 24.95 9.7 49.5 86 7.5 45.4 10.15 0.4
16:12 1016 30 845 24.95 9.8 49.7 85 7.4 45.4 10.27 0.404
16:13 1016 30 845 24.95 9.9 49.9 86 7.7 45.9 10.37 0.408
16:14 1016 30 845 24.95 10.1 50.3 83 7.5 45.4 10.56 0.416
16:15 1016 30 845 24.95 10.3 50.5 86 8 46.4 10.69 0.421
16:16 1016 30 845 24.95 10.5 50.9 83 7.8 46.1 10.9 0.429
16:17 1016 30 845 24.95 10.6 51 83 7.9 46.2 10.95 0.431
16:18 1016 30 845 24.95 10.5 50.8 82 7.6 45.6 10.88 0.428
16:19 1016 30 845 24.95 10.4 50.7 86 8.2 46.8 10.75 0.423
16:20 1016 30 845 24.95 10.4 50.7 84 7.8 46.1 10.83 0.426
16:21 1016 30 845 24.95 10.3 50.6 80 7.1 44.7 10.73 0.422
16:22 1016 30 845 24.95 10.2 50.4 82 7.3 45.1 10.59 0.417
16:23 1016 30 845 24.95 10.1 50.3 81 7.1 44.8 10.54 0.415
16:24 1016 30 845 24.95 10.1 50.1 82 7.2 45 10.44 0.411
16:25 1016 30 845 24.95 10 49.9 83 7.3 45.1 10.34 0.407
16:26 1016 30 845 24.95 9.9 49.9 87 7.8 46.1 10.38 0.409
16:27 1016 30 845 24.95 9.9 49.8 84 7.3 45.2 10.39 0.409
16:28 1016 30 845 24.95 9.8 49.7 83 7.1 44.8 10.23 0.403
16:29 1016 30 845 24.95 9.7 49.5 84 7.1 44.8 10.16 0.4
16:30 1016 30 845 24.95 9.7 49.4 85 7.3 45.1 10.06 0.396
16:31 1016 30 846 24.98 9.6 49.3 86 7.4 45.3 10.03 0.395
16:32 1016 30 845 24.95 9.6 49.2 85 7.1 44.8 9.97 0.393
16:33 1016 30 845 24.95 9.5 49 83 6.7 44.1 9.9 0.39
16:34 1016 30 846 24.98 9.4 48.9 84 6.9 44.4 9.81 0.386
16:35 1016 30 845 24.95 9.4 48.9 87 7.4 45.3 9.84 0.387
16:36 1016 30 846 24.98 9.4 48.9 85 7 44.5 9.82 0.387
16:37 1016 30 845 24.95 9.4 48.9 85 7.1 44.7 9.82 0.387
16:38 1016 30 846 24.98 9.4 48.9 86 7.1 44.9 9.85 0.388
16:39 1016 30 845 24.95 9.4 48.8 84 6.9 44.4 9.76 0.384
16:40 1016 30 845 24.95 9.3 48.8 86 7.1 44.8 9.76 0.384
16:41 1016 30 845 24.95 9.3 48.7 85 6.9 44.4 9.76 0.384
16:42 1016 30 845 24.95 9.3 48.7 84 6.8 44.2 9.68 0.381
16:43 1016 30 846 24.98 9.3 48.7 87 7.2 44.9 9.67 0.381
16:44 1016 30 846 24.98 9.2 48.6 86 7 44.6 9.65 0.38
16:45 1016 30 846 24.98 9.1 48.4 87 7.1 44.8 9.56 0.376
16:46 1016 30 846 24.98 9.1 48.3 88 7.2 45 9.53 0.375
16:47 1016 30 846 24.98 9 48.2 88 7.2 44.9 9.45 0.372
16:48 1016 30 846 24.98 9 48.1 88 7.1 44.8 9.41 0.37
16:49 1016 30 846 24.98 9 48.1 87 6.9 44.5 9.34 0.368
16:50 1016 30 846 24.98 8.9 48.1 88 7.1 44.7 9.32 0.367
16:51 1016 30 846 24.98 8.9 48 87 6.8 44.3 9.32 0.367
16:52 1017 30.03 846 24.98 8.9 47.9 86 6.7 44 9.24 0.364
16:53 1017 30.03 846 24.98 8.9 48 88 7 44.6 9.29 0.366
16:54 1017 30.03 846 24.98 8.9 48 87 6.9 44.4 9.3 0.366
16:55 1017 30.03 846 24.98 8.9 47.9 86 6.7 44 9.26 0.365
16:56 1017 30.03 846 24.98 8.9 47.9 87 6.8 44.2 9.24 0.364
16:57 1017 30.03 846 24.98 8.8 47.9 87 6.7 44.1 9.27 0.365
16:58 1017 30.03 846 24.98 8.8 47.9 86 6.6 43.9 9.22 0.363
16:59 1017 30.03 846 24.98 8.8 47.8 87 6.7 44.1 9.16 0.361
17:00 1017 30.03 846 24.98 8.8 47.8 87 6.7 44.1 9.17 0.361
17:01 1017 30.03 846 24.98 8.7 47.7 88 6.8 44.3 9.15 0.36
17:02 1017 30.03 846 24.98 8.7 47.7 89 6.9 44.5 9.16 0.361
17:03 1017 30.03 846 24.98 8.7 47.7 90 7.1 44.8 9.11 0.359
17:04 1017 30.03 846 24.98 8.6 47.6 90 7.1 44.7 9.06 0.357
17:05 1017 30.03 846 24.98 8.6 47.5 90 7.1 44.8 9.04 0.356
17:06 1017 30.03 846 24.98 8.6 47.4 91 7.1 44.8 9.03 0.356
17:07 1017 30.03 846 24.98 8.5 47.3 91 7.2 44.9 8.94 0.352
17:08 1017 30.03 846 24.98 8.5 47.3 92 7.3 45.2 8.93 0.352
17:09 1017 30.03 846 24.98 8.6 47.4 92 7.4 45.3 8.97 0.353
17:10 1017 30.03 846 24.98 8.5 47.3 91 7.2 44.9 8.97 0.353
17:11 1017 30.03 846 24.98 8.5 47.3 92 7.2 44.9 8.89 0.35
17:12 1017 30.03 846 24.98 8.5 47.3 92 7.3 45.1 8.97 0.353
17:13 1017 30.03 846 24.98 8.5 47.3 91 7.1 44.7 8.88 0.35
17:14 1017 30.03 846 24.98 8.5 47.3 91 7.2 44.9 8.88 0.35
17:15 1017 30.03 846 24.98 8.5 47.3 92 7.3 45.1 8.94 0.352
17:16 1017 30.03 846 24.98 8.5 47.3 91 7.1 44.8 8.93 0.352
17:17 1017 30.03 846 24.98 8.5 47.3 92 7.3 45.1 8.98 0.354
17:18 1017 30.03 846 24.98 8.6 47.4 91 7.2 44.9 8.92 0.351
17:19 1017 30.03 846 24.98 8.5 47.4 91 7.1 44.8 8.87 0.349
17:20 1017 30.03 846 24.98 8.5 47.3 90 7 44.6 8.9 0.35
17:21 1017 30.03 846 24.98 8.5 47.3 90 6.9 44.5 8.85 0.348
17:22 1017 30.03 846 24.98 8.5 47.3 91 7 44.7 8.82 0.347
17:23 1017 30.03 846 24.98 8.5 47.3 91 7 44.7 8.88 0.35
17:24 1017 30.03 846 24.98 8.5 47.3 90 6.9 44.4 8.8 0.346
17:25 1017 30.03 846 24.98 8.4 47.2 89 6.8 44.3 8.81 0.347
17:26 1017 30.03 846 24.98 8.5 47.2 89 6.8 44.2 8.83 0.348
17:27 1017 30.03 846 24.98 8.5 47.2 91 7 44.6 8.79 0.346
17:28 1017 30.03 846 24.98 8.5 47.2 90 6.9 44.4 8.87 0.349
17:29 1017 30.03 846 24.98 8.5 47.3 90 7 44.6 8.84 0.348
17:30 1017 30.03 846 24.98 8.5 47.3 91 7.2 44.9 8.83 0.348
17:31 1017 30.03 846 24.98 8.5 47.3 90 6.9 44.5 8.86 0.349
17:32 1017 30.03 846 24.98 8.5 47.3 91 7.1 44.8 8.85 0.348
17:33 1017 30.03 846 24.98 8.5 47.3 91 7.1 44.7 8.88 0.35
17:34 1017 30.03 846 24.98 8.5 47.2 89 6.8 44.2 8.78 0.346
17:35 1017 30.03 846 24.98 8.5 47.2 90 6.9 44.4 8.79 0.346
17:36 1017 30.03 846 24.98 8.4 47.2 90 6.9 44.3 8.78 0.346
17:37 1017 30.03 846 24.98 8.4 47.1 89 6.6 44 8.77 0.345
17:38 1017 30.03 846 24.98 8.4 47.2 89 6.7 44.1 8.7 0.343
17:39 1017 30.03 846 24.98 8.4 47.1 88 6.6 43.8 8.73 0.344
17:40 1017 30.03 846 24.98 8.4 47.2 88 6.6 43.9 8.71 0.343
17:41 1017 30.03 846 24.98 8.4 47.2 87 6.4 43.6 8.72 0.343
17:42 1017 30.03 846 24.98 8.4 47.1 89 6.6 44 8.72 0.343
17:43 1017 30.03 846 24.98 8.4 47.1 89 6.7 44.1 8.73 0.344
17:44 1017 30.03 846 24.98 8.4 47.1 90 6.8 44.2 8.8 0.346
17:45 1017 30.03 846 24.98 8.4 47.1 90 6.9 44.5 8.72 0.343
17:46 1017 30.03 846 24.98 8.4 47.1 91 7 44.6 8.77 0.345
17:47 1017 30.03 846 24.98 8.4 47.1 91 7 44.7 8.77 0.345
17:48 1017 30.03 846 24.98 8.4 47.1 91 6.9 44.5 8.72 0.343
17:49 1017 30.03 847 25.01 8.3 46.9 91 7 44.5 8.71 0.343
17:50 1017 30.03 847 25.01 8.3 46.9 92 7 44.6 8.62 0.339
17:51 1017 30.03 847 25.01 8.2 46.7 92 7 44.7 8.57 0.337
17:52 1017 30.03 847 25.01 8.1 46.6 93 7.1 44.7 8.55 0.337
17:53 1017 30.03 847 25.01 8.1 46.5 93 7 44.6 8.49 0.334
17:54 1017 30.03 847 25.01 8.1 46.5 93 7 44.6 8.42 0.331
17:55 1018 30.06 847 25.01 7.9 46.2 91 6.5 43.8 8.27 0.326
17:56 1018 30.06 847 25.01 7.7 45.9 92 6.5 43.6 8.05 0.317
17:57 1018 30.06 847 25.01 7.6 45.7 91 6.2 43.2 7.93 0.312
17:58 1018 30.06 847 25.01 7.4 45.3 91 6 42.8 7.76 0.306
17:59 1018 30.06 847 25.01 7.2 45 90 5.8 42.4 7.6 0.299
18:00 1018 30.06 847 25.01 7.1 44.8 91 5.7 42.3 7.45 0.293
18:01 1018 30.06 847 25.01 7 44.6 91 5.7 42.2 7.36 0.29
18:02 1018 30.06 847 25.01 6.9 44.5 92 5.7 42.2 7.26 0.286
18:03 1018 30.06 847 25.01 6.9 44.3 93 5.7 42.3 7.25 0.285
18:04 1018 30.06 847 25.01 6.8 44.3 93 5.8 42.4 7.24 0.285
18:05 1018 30.06 847 25.01 6.8 44.2 93 5.7 42.3 7.12 0.28
18:06 1018 30.06 847 25.01 6.7 44.1 94 5.8 42.4 7.1 0.28
18:07 1018 30.06 847 25.01 6.7 44 94 5.8 42.5 7.09 0.279
18:08 1018 30.06 847 25.01 6.7 44 94 5.9 42.5 7.12 0.28
18:09 1018 30.06 847 25.01 6.7 44 95 5.9 42.6 7.11 0.28
18:10 1018 30.06 847 25.01 6.7 44 95 5.9 42.6 7.09 0.279
18:11 1018 30.06 847 25.01 6.6 44 94 5.8 42.4 7.06 0.278
18:12 1018 30.06 847 25.01 6.7 44 95 5.9 42.6 7.04 0.277
18:13 1018 30.06 847 25.01 6.7 44 95 6 42.7 7.07 0.278
18:14 1018 30.06 847 25.01 6.7 44 95 6 42.8 7.06 0.278
18:15 1018 30.06 847 25.01 6.6 44 96 6 42.8 7.05 0.278
18:16 1018 30.06 847 25.01 6.7 44 96 6 42.8 7.07 0.278
18:17 1018 30.06 847 25.01 6.7 44 96 6 42.9 7.01 0.276
18:18 1018 30.06 847 25.01 6.6 44 96 6 42.8 7.05 0.278
18:19 1018 30.06 847 25.01 6.7 44 96 6.1 42.9 7.06 0.278
18:20 1018 30.06 847 25.01 6.7 44 96 6.1 42.9 7.09 0.279
18:21 1018 30.06 847 25.01 6.7 44 96 6 42.9 7.06 0.278
18:22 1018 30.06 847 25.01 6.7 44 96 6 42.9 7.04 0.277
18:23 1018 30.06 847 25.01 6.6 44 96 6 42.8 7.06 0.278
18:24 1018 30.06 847 25.01 6.6 43.9 96 6 42.8 7.02 0.276
18:25 1018 30.06 847 25.01 6.6 43.9 95 5.9 42.6 6.996 0.275
18:26 1018 30.06 847 25.01 6.6 43.9 95 5.8 42.5 6.962 0.274
18:27 1018 30.06 847 25.01 6.6 43.9 95 5.8 42.5 6.94 0.273
18:28 1018 30.06 847 25.01 6.6 43.9 95 5.8 42.4 6.912 0.272
18:29 1018 30.06 847 25.01 6.6 43.9 94 5.8 42.4 6.9 0.272
18:30 1018 30.06 847 25.01 6.6 43.8 94 5.7 42.3 6.883 0.271
18:31 1018 30.06 847 25.01 6.6 43.8 94 5.7 42.2 6.906 0.272
18:32 1018 30.06 847 25.01 6.6 43.9 93 5.6 42.1 6.906 0.272
18:33 1018 30.06 847 25.01 6.6 43.8 94 5.6 42.1 6.912 0.272
18:34 1018 30.06 847 25.01 6.6 43.8 94 5.6 42.1 6.883 0.271
18:35 1018 30.06 847 25.01 6.6 43.8 93 5.6 42 6.878 0.271
18:36 1018 30.06 847 25.01 6.5 43.8 93 5.5 42 6.878 0.271
18:37 1018 30.06 847 25.01 6.5 43.7 93 5.5 41.9 6.889 0.271
18:38 1018 30.06 847 25.01 6.5 43.7 93 5.5 41.9 6.855 0.27
18:39 1018 30.06 847 25.01 6.5 43.7 93 5.5 41.9 6.867 0.27
18:40 1018 30.06 847 25.01 6.5 43.7 94 5.6 42 6.833 0.269
18:41 1018 30.06 847 25.01 6.5 43.6 94 5.6 42 6.85 0.27
18:42 1018 30.06 847 25.01 6.4 43.6 94 5.6 42.1 6.838 0.269
18:43 1018 30.06 847 25.01 6.4 43.6 94 5.6 42 6.799 0.268
18:44 1018 30.06 847 25.01 6.4 43.6 94 5.6 42.1 6.844 0.269
18:45 1018 30.06 847 25.01 6.4 43.5 94 5.6 42 6.799 0.268
18:46 1018 30.06 847 25.01 6.4 43.4 94 5.5 41.9 6.742 0.265
18:47 1018 30.06 847 25.01 6.4 43.5 94 5.5 41.8 6.714 0.264
18:48 1018 30.06 847 25.01 6.4 43.4 94 5.5 41.8 6.697 0.264
18:49 1018 30.06 847 25.01 6.3 43.4 93 5.4 41.6 6.703 0.264
18:50 1018 30.06 847 25.01 6.3 43.3 93 5.2 41.4 6.663 0.262
18:51 1018 30.06 847 25.01 6.3 43.3 92 5.1 41.2 6.612 0.26
18:52 1018 30.06 847 25.01 6.3 43.3 92 5.1 41.2 6.607 0.26
18:53 1018 30.06 847 25.01 6.3 43.3 92 5 41.1 6.601 0.26
18:54 1018 30.06 847 25.01 6.2 43.2 92 5 41 6.573 0.259
18:55 1018 30.06 847 25.01 6.2 43.2 92 5 41 6.556 0.258
18:56 1018 30.06 847 25.01 6.2 43.2 92 5 40.9 6.556 0.258
18:57 1018 30.06 847 25.01 6.2 43.2 91 4.9 40.9 6.488 0.255
18:58 1018 30.06 847 25.01 6.2 43.1 92 4.9 40.9 6.522 0.257
18:59 1018 30.06 847 25.01 6.2 43.1 91 4.9 40.8 6.539 0.257
19:00 1018 30.06 847 25.01 6.2 43.2 91 4.9 40.8 6.539 0.257
19:01 1018 30.06 847 25.01 6.2 43.1 91 4.9 40.8 6.533 0.257
19:02 1018 30.06 847 25.01 6.2 43.1 91 4.9 40.8 6.544 0.258
19:03 1018 30.06 847 25.01 6.2 43.1 91 4.9 40.8 6.522 0.257
19:04 1018 30.06 847 25.01 6.2 43.2 92 5 40.9 6.544 0.258
19:05 1018 30.06 847 25.01 6.2 43.1 92 4.9 40.9 6.511 0.256
19:06 1018 30.06 847 25.01 6.2 43.1 91 4.9 40.8 6.544 0.258
19:07 1018 30.06 847 25.01 6.2 43.2 92 5 40.9 6.55 0.258
19:08 1018 30.06 847 25.01 6.2 43.2 92 5 40.9 6.578 0.259
19:09 1018 30.06 847 25.01 6.2 43.2 92 5 41 6.567 0.259
19:10 1018 30.06 847 25.01 6.3 43.3 92 5 41.1 6.585 0.259
19:11 1018 30.06 847 25.01 6.3 43.3 92 5 41.1 6.608 0.26
19:12 1018 30.06 847 25.01 6.3 43.3 92 5.1 41.1 6.642 0.261
19:13 1018 30.06 847 25.01 6.3 43.3 92 5.1 41.2 6.648 0.262
19:14 1018 30.06 847 25.01 6.4 43.4 92 5.2 41.4 6.706 0.264
19:15 1018 30.06 847 25.01 6.4 43.4 93 5.2 41.4 6.757 0.266
19:16 1018 30.06 847 25.01 6.4 43.5 93 5.4 41.6 6.78 0.267
19:17 1018 30.06 847 25.01 6.4 43.6 93 5.4 41.8 6.825 0.269
19:18 1018 30.06 847 25.01 6.5 43.6 93 5.4 41.8 6.871 0.271
19:19 1018 30.06 848 25.04 6.5 43.7 93 5.5 41.9 6.888 0.271
19:20 1018 30.06 848 25.04 6.5 43.8 94 5.6 42.1 6.956 0.274
19:21 1018 30.06 848 25.04 6.5 43.8 93 5.6 42 6.951 0.274
19:22 1018 30.06 848 25.04 6.6 43.9 94 5.7 42.2 7.01 0.276
19:23 1018 30.06 848 25.04 6.6 43.9 93 5.6 42.1 7.04 0.277
19:24 1018 30.06 847 25.01 6.7 44 94 5.7 42.3 7.05 0.278
19:25 1018 30.06 848 25.04 6.7 44 94 5.7 42.3 7.06 0.278
19:26 1018 30.06 848 25.04 6.7 44.1 93 5.7 42.2 7.03 0.277
19:27 1018 30.06 848 25.04 6.7 44.1 92 5.6 42.1 7.05 0.278
19:28 1018 30.06 848 25.04 6.7 44.1 93 5.7 42.2 7.07 0.278
19:29 1018 30.06 848 25.04 6.7 44.1 93 5.7 42.3 7.1 0.28
19:30 1018 30.06 848 25.04 6.7 44.1 92 5.6 42.1 7.11 0.28
19:31 1018 30.06 848 25.04 6.7 44.1 93 5.6 42.1 7.14 0.281
19:32 1018 30.06 847 25.01 6.8 44.2 93 5.7 42.3 7.14 0.281
19:33 1018 30.06 847 25.01 6.8 44.2 92 5.6 42.1 7.14 0.281
19:34 1018 30.06 847 25.01 6.8 44.2 92 5.6 42.1 7.14 0.281
19:35 1018 30.06 847 25.01 6.8 44.2 92 5.6 42.2 7.12 0.28
19:36 1018 30.06 847 25.01 6.8 44.3 92 5.7 42.2 7.15 0.281
19:37 1018 30.06 848 25.04 6.8 44.2 92 5.6 42.2 7.15 0.281
19:38 1018 30.06 848 25.04 6.8 44.2 93 5.7 42.2 7.12 0.28
19:39 1018 30.06 848 25.04 6.8 44.2 93 5.7 42.2 7.11 0.28
19:40 1018 30.06 848 25.04 6.7 44.1 93 5.7 42.2 7.1 0.28
19:41 1018 30.06 848 25.04 6.7 44.1 93 5.6 42.2 7.08 0.279
19:42 1018 30.06 848 25.04 6.7 44.1 93 5.6 42.2 7.06 0.278
19:43 1018 30.06 848 25.04 6.6 43.9 93 5.6 42 7.02 0.276
19:44 1018 30.06 848 25.04 6.6 44 93 5.6 42.1 7.01 0.276
19:45 1018 30.06 848 25.04 6.6 43.9 93 5.6 42 6.988 0.275
19:46 1018 30.06 848 25.04 6.6 43.8 93 5.6 42 6.966 0.274
19:47 1018 30.06 848 25.04 6.6 43.9 93 5.5 42 6.937 0.273
19:48 1018 30.06 848 25.04 6.6 43.8 93 5.5 41.9 6.938 0.273
19:49 1018 30.06 848 25.04 6.6 43.9 92 5.4 41.8 6.916 0.272
19:50 1018 30.06 848 25.04 6.6 43.9 93 5.5 41.9 6.956 0.274
19:51 1018 30.06 848 25.04 6.6 43.9 93 5.5 41.8 6.956 0.274
19:52 1018 30.06 848 25.04 6.6 43.9 93 5.5 41.9 6.957 0.274
19:53 1019 30.09 848 25.04 6.6 43.9 93 5.5 42 7.01 0.276
19:54 1019 30.09 848 25.04 6.6 43.9 93 5.5 42 7 0.276
19:55 1019 30.09 848 25.04 6.6 43.9 93 5.5 42 6.951 0.274
19:56 1019 30.09 848 25.04 6.6 43.9 93 5.6 42.1 6.973 0.275
19:57 1019 30.09 848 25.04 6.6 43.9 93 5.6 42.1 6.985 0.275
19:58 1019 30.09 848 25.04 6.6 43.9 93 5.6 42.1 6.997 0.275
19:59 1019 30.09 848 25.04 6.6 43.9 93 5.6 42 6.992 0.275
20:00 1019 30.09 848 25.04 6.6 43.9 93 5.6 42.1 6.986 0.275
20:01 1019 30.09 848 25.04 6.6 43.9 93 5.6 42.1 6.975 0.275
20:02 1019 30.09 848 25.04 6.6 44 93 5.6 42.2 6.987 0.275
20:03 1019 30.09 848 25.04 6.6 43.9 93 5.6 42.1 6.993 0.275
20:04 1019 30.09 848 25.04 6.6 43.9 93 5.6 42.1 6.953 0.274
20:05 1019 30.09 848 25.04 6.6 43.9 93 5.6 42.1 6.976 0.275
20:06 1019 30.09 848 25.04 6.7 44 93 5.7 42.2 7 0.276
20:07 1019 30.09 848 25.04 6.6 44 94 5.7 42.2 6.971 0.274
20:08 1019 30.09 848 25.04 6.6 43.9 94 5.7 42.2 7.02 0.276
20:09 1019 30.09 848 25.04 6.6 43.9 94 5.7 42.2 6.966 0.274
20:10 1019 30.09 848 25.04 6.6 43.9 94 5.7 42.2 7.01 0.276
20:11 1019 30.09 848 25.04 6.6 43.9 94 5.7 42.3 6.988 0.275
20:12 1019 30.09 848 25.04 6.6 43.9 94 5.7 42.3 6.972 0.274
20:13 1019 30.09 848 25.04 6.6 43.9 94 5.8 42.4 7 0.276
20:14 1019 30.09 848 25.04 6.6 43.9 94 5.7 42.3 6.983 0.275
20:15 1019 30.09 848 25.04 6.6 43.8 93 5.6 42.1 6.961 0.274
20:16 1019 30.09 848 25.04 6.6 43.9 93 5.6 42.1 6.955 0.274
20:17 1019 30.09 848 25.04 6.6 43.9 93 5.6 42.1 6.921 0.272
20:18 1019 30.09 848 25.04 6.6 43.9 93 5.6 42.1 6.95 0.274
20:19 1019 30.09 848 25.04 6.6 43.8 93 5.5 41.9 6.927 0.273
20:20 1019 30.09 848 25.04 6.6 43.9 93 5.5 41.8 6.916 0.272
20:21 1019 30.09 848 25.04 6.6 43.8 92 5.4 41.7 6.927 0.273
20:22 1019 30.09 848 25.04 6.6 43.9 92 5.3 41.6 6.95 0.274
20:23 1019 30.09 848 25.04 6.6 44 92 5.4 41.7 6.922 0.273
20:24 1019 30.09 848 25.04 6.6 43.9 91 5.3 41.6 6.956 0.274
20:25 1019 30.09 848 25.04 6.6 43.9 91 5.3 41.6 6.99 0.275
20:26 1019 30.09 848 25.04 6.6 43.9 91 5.3 41.6 6.95 0.274
20:27 1019 30.09 848 25.04 6.6 43.9 92 5.3 41.6 6.966 0.274
20:28 1019 30.09 848 25.04 6.6 43.9 92 5.4 41.6 6.977 0.275
20:29 1019 30.09 848 25.04 6.6 43.8 92 5.4 41.7 6.949 0.274
20:30 1019 30.09 848 25.04 6.6 43.8 92 5.4 41.8 6.955 0.274
20:31 1019 30.09 848 25.04 6.6 43.8 92 5.4 41.7 6.943 0.273
20:32 1019 30.09 848 25.04 6.5 43.7 92 5.3 41.6 6.881 0.271
20:33 1019 30.09 848 25.04 6.5 43.8 92 5.3 41.6 6.898 0.272
20:34 1019 30.09 848 25.04 6.5 43.8 92 5.3 41.5 6.836 0.269
20:35 1019 30.09 848 25.04 6.5 43.7 92 5.3 41.5 6.887 0.271
20:36 1019 30.09 848 25.04 6.5 43.8 92 5.3 41.5 6.893 0.271
20:37 1019 30.09 848 25.04 6.5 43.7 92 5.3 41.5 6.882 0.271
20:38 1019 30.09 848 25.04 6.5 43.7 92 5.2 41.4 6.859 0.27
20:39 1019 30.09 848 25.04 6.5 43.7 91 5.2 41.3 6.876 0.271
20:40 1019 30.09 848 25.04 6.5 43.7 92 5.2 41.4 6.899 0.272
20:41 1019 30.09 848 25.04 6.5 43.7 92 5.2 41.4 6.882 0.271
20:42 1019 30.09 848 25.04 6.5 43.8 91 5.2 41.3 6.899 0.272
20:43 1019 30.09 848 25.04 6.6 43.8 91 5.2 41.3 6.865 0.27
20:44 1019 30.09 848 25.04 6.5 43.8 91 5.1 41.3 6.882 0.271
20:45 1019 30.09 848 25.04 6.6 43.8 91 5.2 41.4 6.905 0.272
20:46 1019 30.09 848 25.04 6.5 43.8 90 5.1 41.1 6.888 0.271
20:47 1019 30.09 848 25.04 6.5 43.8 90 5.1 41.1 6.831 0.269
20:48 1019 30.09 848 25.04 6.6 43.8 90 5.1 41.2 6.899 0.272
20:49 1019 30.09 848 25.04 6.5 43.7 91 5.1 41.2 6.865 0.27
20:50 1019 30.09 848 25.04 6.5 43.6 90 5 41 6.826 0.269
20:51 1019 30.09 848 25.04 6.5 43.7 90 5 41 6.769 0.266
20:52 1019 30.09 848 25.04 6.5 43.6 90 5 40.9 6.781 0.267
20:53 1019 30.09 848 25.04 6.4 43.6 90 4.9 40.9 6.758 0.266
20:54 1019 30.09 848 25.04 6.4 43.6 90 4.9 40.8 6.73 0.265
20:55 1019 30.09 848 25.04 6.4 43.6 90 4.9 40.8 6.701 0.264
20:56 1019 30.09 848 25.04 6.4 43.5 90 4.9 40.7 6.696 0.264
20:57 1019 30.09 848 25.04 6.4 43.5 90 4.9 40.8 6.685 0.263
20:58 1019 30.09 848 25.04 6.4 43.4 91 5 40.9 6.696 0.264
20:59 1019 30.09 848 25.04 6.3 43.3 91 4.9 40.8 6.634 0.261
21:00 1019 30.09 848 25.04 6.3 43.3 91 4.9 40.9 6.577 0.259
21:01 1019 30.09 848 25.04 6.2 43.1 91 4.8 40.7 6.537 0.257
21:02 1019 30.09 848 25.04 6.2 43.2 91 4.8 40.6 6.526 0.257
21:03 1019 30.09 848 25.04 6.2 43.1 91 4.8 40.6 6.475 0.255
21:04 1019 30.09 848 25.04 6.2 43.1 91 4.7 40.5 6.464 0.254
21:05 1019 30.09 848 25.04 6.2 43.1 90 4.7 40.5 6.419 0.253
21:06 1019 30.09 848 25.04 6.1 43.1 91 4.7 40.5 6.47 0.255
21:07 1019 30.09 848 25.04 6.1 43 91 4.7 40.5 6.407 0.252
21:08 1019 30.09 848 25.04 6.1 42.9 91 4.7 40.5 6.385 0.251
21:09 1019 30.09 848 25.04 6 42.9 92 4.8 40.6 6.379 0.251
21:10 1019 30.09 848 25.04 6 42.7 92 4.7 40.5 6.294 0.248
21:11 1019 30.09 848 25.04 6 42.8 92 4.7 40.5 6.334 0.249
21:12 1019 30.09 848 25.04 6 42.8 92 4.7 40.5 6.317 0.249
21:13 1019 30.09 848 25.04 6 42.8 92 4.8 40.6 6.323 0.249
21:14 1019 30.09 848 25.04 6 42.9 92 4.8 40.6 6.317 0.249
21:15 1019 30.09 848 25.04 6 42.9 92 4.8 40.6 6.317 0.249
21:16 1019 30.09 848 25.04 6 42.8 92 4.8 40.6 6.3 0.248
21:17 1019 30.09 848 25.04 6 42.8 91 4.7 40.4 6.306 0.248
21:18 1019 30.09 848 25.04 6 42.8 91 4.6 40.4 6.277 0.247
21:19 1019 30.09 848 25.04 6 42.7 90 4.5 40.1 6.277 0.247
21:20 1019 30.09 848 25.04 6 42.8 90 4.5 40 6.277 0.247
21:21 1019 30.09 848 25.04 6 42.8 89 4.3 39.8 6.232 0.245
21:22 1019 30.09 848 25.04 6 42.8 89 4.3 39.8 6.272 0.247
21:23 1019 30.09 848 25.04 6 42.8 89 4.3 39.7 6.243 0.246
21:24 1019 30.09 848 25.04 6 42.8 88 4.1 39.5 6.238 0.246
21:25 1019 30.09 848 25.04 6 42.7 88 4.2 39.6 6.283 0.247
21:26 1019 30.09 848 25.04 6 42.7 89 4.3 39.7 6.26 0.246
21:27 1019 30.09 848 25.04 5.9 42.7 89 4.3 39.8 6.226 0.245
21:28 1019 30.09 848 25.04 5.9 42.6 90 4.4 39.9 6.21 0.244
21:29 1019 30.09 848 25.04 5.9 42.6 91 4.4 40 6.164 0.243
21:30 1019 30.09 848 25.04 5.8 42.4 91 4.4 40 6.153 0.242
21:31 1019 30.09 848 25.04 5.8 42.4 91 4.4 40 6.125 0.241
21:32 1019 30.09 848 25.04 5.8 42.4 91 4.5 40.1 6.079 0.239
21:33 1019 30.09 848 25.04 5.7 42.3 91 4.4 40 6.113 0.241
21:34 1019 30.09 848 25.04 5.7 42.3 91 4.4 40 6.091 0.24
21:35 1019 30.09 848 25.04 5.7 42.3 91 4.4 39.9 6.079 0.239
21:36 1019 30.09 848 25.04 5.8 42.4 91 4.4 40 6.079 0.239
21:37 1019 30.09 848 25.04 5.7 42.3 91 4.4 39.9 6.113 0.241
21:38 1019 30.09 848 25.04 5.8 42.4 91 4.4 39.9 6.045 0.238
21:39 1019 30.09 848 25.04 5.7 42.3 90 4.3 39.7 6.034 0.238
21:40 1019 30.09 848 25.04 5.7 42.3 90 4.3 39.7 6.074 0.239
21:41 1019 30.09 848 25.04 5.8 42.4 90 4.3 39.7 6.091 0.24
21:42 1019 30.09 848 25.04 5.8 42.4 90 4.3 39.8 6.142 0.242
21:43 1019 30.09 848 25.04 5.8 42.4 90 4.3 39.8 6.159 0.242
21:44 1019 30.09 848 25.04 5.8 42.5 90 4.4 39.8 6.181 0.243
21:45 1019 30.09 848 25.04 5.9 42.5 90 4.4 39.9 6.176 0.243
21:46 1019 30.09 848 25.04 5.9 42.5 90 4.4 39.9 6.221 0.245
21:47 1019 30.09 848 25.04 5.9 42.7 90 4.4 39.9 6.306 0.248
21:48 1019 30.09 848 25.04 6 42.8 90 4.5 40 6.334 0.249
21:49 1019 30.09 848 25.04 6 42.8 90 4.5 40.1 6.368 0.251
21:50 1019 30.09 848 25.04 6 42.9 90 4.5 40.1 6.424 0.253
21:51 1019 30.09 848 25.04 6 42.9 90 4.5 40.2 6.396 0.252
21:52 1019 30.09 848 25.04 6.1 42.9 90 4.6 40.3 6.402 0.252
21:53 1019 30.09 848 25.04 6 42.9 91 4.6 40.3 6.351 0.25
21:54 1019 30.09 848 25.04 6 42.9 91 4.6 40.3 6.385 0.251
21:55 1019 30.09 848 25.04 6 42.9 91 4.6 40.3 6.413 0.252
21:56 1019 30.09 848 25.04 6.1 42.9 91 4.7 40.4 6.413 0.252
21:57 1019 30.09 848 25.04 6 42.8 91 4.6 40.3 6.385 0.251
21:58 1019 30.09 848 25.04 6 42.9 91 4.6 40.3 6.379 0.251
21:59 1019 30.09 848 25.04 6.1 42.9 91 4.7 40.4 6.385 0.251
22:00 1019 30.09 848 25.04 6 42.9 91 4.7 40.5 6.379 0.251
22:01 1019 30.09 848 25.04 6 42.8 91 4.7 40.5 6.311 0.248
22:02 1019 30.09 848 25.04 6 42.8 92 4.7 40.5 6.306 0.248
22:03 1019 30.09 849 25.07 5.9 42.7 92 4.7 40.5 6.243 0.246
22:04 1019 30.09 849 25.07 5.9 42.6 92 4.7 40.5 6.243 0.246
22:05 1019 30.09 849 25.07 5.9 42.6 92 4.7 40.5 6.238 0.246
22:06 1019 30.09 849 25.07 5.9 42.5 92 4.7 40.5 6.187 0.244
22:07 1019 30.09 849 25.07 5.8 42.5 93 4.7 40.5 6.159 0.242
22:08 1019 30.09 849 25.07 5.8 42.5 93 4.7 40.5 6.176 0.243
22:09 1019 30.09 849 25.07 5.8 42.5 93 4.8 40.6 6.187 0.244
22:10 1019 30.09 849 25.07 5.8 42.5 93 4.8 40.6 6.153 0.242
22:11 1019 30.09 849 25.07 5.8 42.4 93 4.8 40.6 6.193 0.244
22:12 1020 30.12 849 25.07 5.8 42.5 93 4.8 40.7 6.232 0.245
22:13 1020 30.12 849 25.07 5.8 42.5 93 4.8 40.7 6.221 0.245
22:14 1020 30.12 849 25.07 5.8 42.5 94 4.9 40.8 6.243 0.246
22:15 1020 30.12 849 25.07 5.9 42.6 94 5 40.9 6.243 0.246
22:16 1020 30.12 849 25.07 5.9 42.6 94 5 41 6.232 0.245
22:17 1020 30.12 849 25.07 5.9 42.6 94 5 40.9 6.249 0.246
22:18 1020 30.12 849 25.07 5.8 42.5 94 4.9 40.9 6.21 0.244
22:19 1020 30.12 849 25.07 5.8 42.5 94 4.9 40.8 6.21 0.244
22:20 1020 30.12 849 25.07 5.8 42.5 94 4.9 40.8 6.187 0.244
22:21 1020 30.12 849 25.07 5.8 42.5 94 4.9 40.8 6.159 0.242
22:22 1020 30.12 849 25.07 5.8 42.5 94 4.9 40.8 6.187 0.244
22:23 1020 30.12 849 25.07 5.8 42.5 94 4.9 40.8 6.198 0.244
22:24 1020 30.12 849 25.07 5.8 42.5 94 4.9 40.8 6.176 0.243
22:25 1020 30.12 849 25.07 5.8 42.5 94 4.9 40.8 6.187 0.244
22:26 1020 30.12 849 25.07 5.8 42.5 94 4.9 40.8 6.17 0.243
22:27 1020 30.12 849 25.07 5.9 42.5 94 4.9 40.9 6.17 0.243
22:28 1020 30.12 849 25.07 5.9 42.5 94 4.9 40.9 6.198 0.244
22:29 1020 30.12 849 25.07 5.9 42.6 94 5 41 6.221 0.245
22:30 1020 30.12 849 25.07 5.9 42.6 94 5 41 6.232 0.245
22:31 1020 30.12 849 25.07 5.9 42.6 94 5 41 6.21 0.244
22:32 1020 30.12 849 25.07 5.9 42.6 94 5 41 6.221 0.245
22:33 1020 30.12 849 25.07 5.9 42.6 94 5 41 6.228 0.245
22:34 1020 30.12 849 25.07 5.9 42.6 94 4.9 40.9 6.239 0.246
22:35 1020 30.12 849 25.07 5.9 42.6 94 5 40.9 6.273 0.247
22:36 1020 30.12 849 25.07 5.9 42.6 94 5 40.9 6.216 0.245
22:37 1020 30.12 849 25.07 5.9 42.7 94 5 40.9 6.273 0.247
22:38 1020 30.12 849 25.07 5.9 42.6 94 4.9 40.9 6.211 0.245
22:39 1020 30.12 849 25.07 5.9 42.7 93 4.9 40.9 6.256 0.246
22:40 1020 30.12 849 25.07 5.9 42.7 93 4.9 40.8 6.239 0.246
22:41 1020 30.12 849 25.07 5.9 42.6 93 4.9 40.8 6.239 0.246
22:42 1020 30.12 849 25.07 5.9 42.7 93 4.9 40.9 6.267 0.247
22:43 1020 30.12 849 25.07 6 42.7 93 5 40.9 6.295 0.248
22:44 1020 30.12 849 25.07 6 42.8 93 5 41 6.307 0.248
22:45 1020 30.12 849 25.07 5.9 42.7 94 5 41 6.325 0.249
22:46 1020 30.12 849 25.07 6 42.7 94 5 41 6.364 0.251
22:47 1020 30.12 849 25.07 6 42.8 94 5.1 41.2 6.359 0.25
22:48 1020 30.12 849 25.07 6 42.8 94 5.1 41.2 6.336 0.249
22:49 1020 30.12 849 25.07 6 42.8 94 5.2 41.3 6.358 0.25
22:50 1020 30.12 849 25.07 6 42.8 94 5.1 41.3 6.364 0.251
22:51 1020 30.12 849 25.07 6 42.8 93 5 41 6.392 0.252
22:52 1020 30.12 849 25.07 6.1 43 90 4.6 40.4 6.415 0.253
22:53 1020 30.12 849 25.07 6.3 43.3 90 4.7 40.5 6.528 0.257
22:54 1020 30.12 849 25.07 6.3 43.4 91 4.9 40.8 6.608 0.26
22:55 1020 30.12 849 25.07 6.3 43.4 91 5 41 6.654 0.262
22:56 1020 30.12 849 25.07 6.3 43.3 91 4.9 40.8 6.609 0.26
22:57 1020 30.12 849 25.07 6.2 43.2 92 5 41 6.592 0.26
22:58 1020 30.12 849 25.07 6.2 43.2 91 4.8 40.6 6.564 0.258
22:59 1020 30.12 849 25.07 6.2 43.1 91 4.9 40.8 6.548 0.258
23:00 1020 30.12 849 25.07 6.1 43.1 91 4.8 40.6 6.457 0.254
23:01 1020 30.12 849 25.07 6.1 43 90 4.7 40.4 6.395 0.252
23:02 1020 30.12 849 25.07 6.1 42.9 90 4.6 40.2 6.35 0.25
23:03 1020 30.12 849 25.07 6 42.8 90 4.4 40 6.294 0.248
23:04 1020 30.12 849 25.07 5.9 42.7 89 4.3 39.8 6.226 0.245
23:05 1020 30.12 849 25.07 5.9 42.6 90 4.3 39.8 6.187 0.244
23:06 1020 30.12 850 25.1 5.8 42.4 89 4.2 39.5 6.13 0.241
23:07 1020 30.12 850 25.1 5.7 42.3 89 4.1 39.4 6.057 0.238
23:08 1020 30.12 850 25.1 5.7 42.2 89 4 39.3 6.022 0.237
23:09 1020 30.12 849 25.07 5.6 42.1 90 4.1 39.3 5.954 0.234
23:10 1020 30.12 850 25.1 5.6 42.1 90 4.1 39.5 5.931 0.234
23:11 1020 30.12 850 25.1 5.5 42 90 4.1 39.4 5.949 0.234
23:12 1020 30.12 850 25.1 5.5 41.9 91 4.2 39.5 5.881 0.232
23:13 1020 30.12 850 25.1 5.4 41.8 92 4.3 39.7 5.841 0.23
23:14 1020 30.12 850 25.1 5.4 41.8 92 4.2 39.6 5.774 0.227
23:15 1020 30.12 850 25.1 5.4 41.7 92 4.2 39.6 5.802 0.228
23:16 1020 30.12 850 25.1 5.4 41.7 93 4.3 39.8 5.797 0.228
23:17 1020 30.12 850 25.1 5.4 41.6 93 4.3 39.8 5.763 0.227
23:18 1020 30.12 850 25.1 5.4 41.7 93 4.4 39.8 5.735 0.226
23:19 1020 30.12 850 25.1 5.3 41.6 93 4.4 39.9 5.729 0.226
23:20 1020 30.12 850 25.1 5.3 41.6 94 4.4 39.9 5.751 0.226
23:21 1020 30.12 850 25.1 5.3 41.6 93 4.3 39.7 5.728 0.226
23:22 1020 30.12 850 25.1 5.3 41.6 93 4.3 39.7 5.677 0.224
23:23 1020 30.12 850 25.1 5.3 41.6 93 4.3 39.8 5.689 0.224
23:24 1020 30.12 850 25.1 5.3 41.6 93 4.3 39.8 5.706 0.225
23:25 1020 30.12 850 25.1 5.3 41.5 94 4.3 39.8 5.672 0.223
23:26 1020 30.12 850 25.1 5.3 41.5 93 4.3 39.7 5.655 0.223
23:27 1020 30.12 850 25.1 5.3 41.5 94 4.3 39.8 5.655 0.223
23:28 1021 30.15 850 25.1 5.3 41.6 94 4.4 39.9 5.644 0.222
23:29 1021 30.15 850 25.1 5.3 41.5 94 4.4 39.9 5.661 0.223
23:30 1021 30.15 850 25.1 5.3 41.5 94 4.4 40 5.633 0.222
23:31 1021 30.15 850 25.1 5.3 41.5 94 4.4 40 5.616 0.221
23:32 1021 30.15 850 25.1 5.2 41.4 94 4.4 39.8 5.616 0.221
23:33 1020 30.12 850 25.1 5.2 41.4 94 4.4 39.9 5.599 0.22
23:34 1020 30.12 850 25.1 5.2 41.4 94 4.3 39.8 5.645 0.222
23:35 1020 30.12 850 25.1 5.2 41.4 94 4.4 39.9 5.611 0.221
23:36 1021 30.15 850 25.1 5.2 41.4 94 4.4 39.9 5.617 0.221
23:37 1021 30.15 850 25.1 5.2 41.4 94 4.4 39.9 5.617 0.221
23:38 1021 30.15 850 25.1 5.2 41.4 95 4.4 40 5.634 0.222
23:39 1021 30.15 850 25.1 5.3 41.5 95 4.5 40.1 5.639 0.222
23:40 1021 30.15 850 25.1 5.3 41.5 95 4.5 40.1 5.64 0.222
23:41 1021 30.15 850 25.1 5.3 41.5 95 4.5 40.1 5.651 0.222
23:42 1021 30.15 850 25.1 5.2 41.4 95 4.5 40.1 5.628 0.222
23:43 1021 30.15 850 25.1 5.3 41.5 95 4.5 40.1 5.651 0.222
23:44 1021 30.15 850 25.1 5.2 41.4 95 4.5 40.1 5.606 0.221
23:45 1021 30.15 850 25.1 5.2 41.4 95 4.4 40 5.606 0.221
23:46 1021 30.15 850 25.1 5.2 41.4 95 4.5 40.1 5.606 0.221
23:47 1021 30.15 850 25.1 5.2 41.4 95 4.5 40.1 5.606 0.221
23:48 1021 30.15 850 25.1 5.3 41.5 95 4.6 40.2 5.612 0.221
23:49 1021 30.15 850 25.1 5.3 41.5 95 4.5 40.2 5.668 0.223
23:50 1021 30.15 850 25.1 5.3 41.6 95 4.6 40.3 5.668 0.223
23:51 1021 30.15 850 25.1 5.3 41.5 95 4.5 40.2 5.634 0.222
23:52 1021 30.15 850 25.1 5.3 41.5 95 4.5 40.1 5.549 0.218
23:53 1021 30.15 850 25.1 5.3 41.5 95 4.5 40.2 5.629 0.222
23:54 1021 30.15 850 25.1 5.3 41.6 95 4.6 40.2 5.623 0.221
23:55 1021 30.15 850 25.1 5.3 41.5 95 4.5 40.2 5.646 0.222
23:56 1021 30.15 850 25.1 5.3 41.5 95 4.5 40.2 5.623 0.221
23:57 1021 30.15 850 25.1 5.3 41.5 95 4.5 40.1 5.578 0.22
23:58 1021 30.15 850 25.1 5.3 41.5 95 4.5 40.1 5.589 0.22
23:59 1021 30.15 850 25.1 5.3 41.5 94 4.4 40 5.629 0.222
24:00 1021 30.15 850 25.1 5.3 41.5 94 4.4 40 5.589 0.22